Time,TemperatureF,DewpointF,PressureIn,WindDirection,WindDirectionDegrees,WindSpeedMPH,WindSpeedGustMPH,Humidity,HourlyPrecipIn,Conditions,Clouds,dailyrainin,SoftwareType,DateUTC
2013-01-20 00:02:00,38.4,28.8,30.01,NW,304,13.0,18.0,68,0.00,,---,0.00,VWS V14.01,2013-01-20 06:02:00,
2013-01-20 00:03:00,38.4,28.4,30.02,NW,323,10.0,23.0,67,0.00,,---,0.00,VWS V14.01,2013-01-20 06:03:00,
2013-01-20 00:04:00,38.4,28.4,30.02,NW,310,12.0,23.0,67,0.00,,---,0.00,VWS V14.01,2013-01-20 06:04:00,
2013-01-20 00:07:00,38.4,27.7,30.02,WNW,296,9.0,23.0,65,0.00,,---,0.00,VWS V14.01,2013-01-20 06:07:00,
2013-01-20 00:09:00,38.3,27.2,30.02,WNW,289,24.0,24.0,64,0.00,,---,0.00,VWS V14.01,2013-01-20 06:09:00,
2013-01-20 00:12:00,38.3,26.0,30.02,NW,320,14.0,31.0,61,0.00,,---,0.00,VWS V14.01,2013-01-20 06:12:00,
2013-01-20 00:14:00,38.2,25.5,30.02,NW,306,7.0,31.0,60,0.00,,---,0.00,VWS V14.01,2013-01-20 06:14:00,
2013-01-20 00:17:00,37.9,25.3,30.02,WNW,292,10.0,31.0,60,0.00,,---,0.00,VWS V14.01,2013-01-20 06:17:00,
2013-01-20 00:18:00,37.9,25.3,30.02,NW,317,11.0,31.0,60,0.00,,---,0.00,VWS V14.01,2013-01-20 06:18:00,
2013-01-20 00:19:00,37.7,25.1,30.02,WNW,290,7.0,31.0,60,0.00,,---,0.00,VWS V14.01,2013-01-20 06:19:00,
2013-01-20 00:22:00,37.2,25.8,30.03,North,355,12.0,31.0,63,0.00,,---,0.00,VWS V14.01,2013-01-20 06:22:00,
2013-01-20 00:23:00,37.2,25.8,30.03,NW,313,7.0,31.0,63,0.00,,---,0.00,VWS V14.01,2013-01-20 06:23:00,
2013-01-20 00:24:00,37.0,26.3,30.03,NW,308,9.0,31.0,65,0.00,,---,0.00,VWS V14.01,2013-01-20 06:24:00,
2013-01-20 00:27:00,36.5,27.0,30.03,NNE,19,4.0,31.0,68,0.00,,---,0.00,VWS V14.01,2013-01-20 06:27:00,
2013-01-20 00:28:00,36.4,26.9,30.04,NW,325,3.0,31.0,68,0.00,,---,0.00,VWS V14.01,2013-01-20 06:28:00,
2013-01-20 00:29:00,36.1,26.9,30.04,North,355,6.0,31.0,69,0.00,,---,0.00,VWS V14.01,2013-01-20 06:29:00,
2013-01-20 00:32:00,35.3,26.5,30.04,NNW,342,2.0,11.0,70,0.00,,---,0.00,VWS V14.01,2013-01-20 06:32:00,
2013-01-20 00:34:00,34.9,26.1,30.05,North,360,10.0,13.0,70,0.00,,---,0.00,VWS V14.01,2013-01-20 06:34:00,
2013-01-20 00:35:00,34.7,26.3,30.05,North,9,10.0,13.0,71,0.00,,---,0.00,VWS V14.01,2013-01-20 06:35:00,
2013-01-20 00:38:00,34.4,26.0,30.05,NW,304,3.0,14.0,71,0.00,,---,0.00,VWS V14.01,2013-01-20 06:38:00,
2013-01-20 00:39:00,34.3,26.2,30.05,NW,324,3.0,14.0,72,0.00,,---,0.00,VWS V14.01,2013-01-20 06:39:00,
2013-01-20 00:40:00,34.1,26.0,30.05,NNE,14,7.0,14.0,72,0.00,,---,0.00,VWS V14.01,2013-01-20 06:40:00,
2013-01-20 00:43:00,33.6,25.9,30.05,North,360,6.0,17.0,73,0.00,,---,0.00,VWS V14.01,2013-01-20 06:43:00,
2013-01-20 00:44:00,33.5,25.8,30.06,NW,307,6.0,17.0,73,0.00,,---,0.00,VWS V14.01,2013-01-20 06:44:00,
2013-01-20 00:45:00,33.4,25.7,30.06,WNW,300,4.0,17.0,73,0.00,,---,0.00,VWS V14.01,2013-01-20 06:45:00,
2013-01-20 00:48:00,33.1,25.4,30.07,NNW,339,6.0,17.0,73,0.00,,---,0.00,VWS V14.01,2013-01-20 06:48:00,
2013-01-20 00:49:00,33.0,25.6,30.06,WNW,290,9.0,17.0,74,0.00,,---,0.00,VWS V14.01,2013-01-20 06:49:00,
2013-01-20 00:50:00,32.9,25.5,30.07,North,355,2.0,17.0,74,0.00,,---,0.00,VWS V14.01,2013-01-20 06:50:00,
2013-01-20 00:53:00,32.6,25.2,30.07,WNW,300,10.0,17.0,74,0.00,,---,0.00,VWS V14.01,2013-01-20 06:53:00,
2013-01-20 00:54:00,32.6,25.6,30.07,NNE,15,11.0,17.0,75,0.00,,---,0.00,VWS V14.01,2013-01-20 06:54:00,
2013-01-20 00:55:00,32.5,25.5,30.07,North,355,10.0,17.0,75,0.00,,---,0.00,VWS V14.01,2013-01-20 06:55:00,
2013-01-20 00:58:00,32.2,24.9,30.07,WNW,292,4.0,17.0,74,0.00,,---,0.00,VWS V14.01,2013-01-20 06:58:00,
2013-01-20 00:59:00,32.1,24.8,30.07,North,5,9.0,17.0,74,0.00,,---,0.00,VWS V14.01,2013-01-20 06:59:00,
2013-01-20 01:01:00,31.9,24.6,30.08,NNE,12,9.0,17.0,74,0.00,,---,0.00,VWS V14.01,2013-01-20 07:01:00,
2013-01-20 01:03:00,31.5,23.9,30.08,North,5,5.0,17.0,73,0.00,,---,0.00,VWS V14.01,2013-01-20 07:03:00,
2013-01-20 01:04:00,31.4,23.8,30.08,NNE,18,6.0,17.0,73,0.00,,---,0.00,VWS V14.01,2013-01-20 07:04:00,
2013-01-20 01:05:00,31.3,23.7,30.08,NNW,348,12.0,17.0,73,0.00,,---,0.00,VWS V14.01,2013-01-20 07:05:00,
2013-01-20 01:06:00,31.2,23.6,30.08,NNE,19,14.0,17.0,73,0.00,,---,0.00,VWS V14.01,2013-01-20 07:06:00,
2013-01-20 01:08:00,30.9,23.3,30.09,North,5,6.0,17.0,73,0.00,,---,0.00,VWS V14.01,2013-01-20 07:08:00,
2013-01-20 01:09:00,30.8,23.2,30.09,North,355,5.0,18.0,73,0.00,,---,0.00,VWS V14.01,2013-01-20 07:09:00,
2013-01-20 01:10:00,30.7,23.1,30.09,NNW,336,4.0,18.0,73,0.00,,---,0.00,VWS V14.01,2013-01-20 07:10:00,
2013-01-20 01:11:00,30.6,23.0,30.08,NW,310,5.0,18.0,73,0.00,,---,0.00,VWS V14.01,2013-01-20 07:11:00,
2013-01-20 01:13:00,30.4,22.8,30.09,NNW,342,6.0,18.0,73,0.00,,---,0.00,VWS V14.01,2013-01-20 07:13:00,
2013-01-20 01:15:00,30.3,23.0,30.09,NNW,338,6.0,18.0,74,0.00,,---,0.00,VWS V14.01,2013-01-20 07:15:00,
2013-01-20 01:16:00,30.1,22.8,30.09,NW,326,10.0,18.0,74,0.00,,---,0.00,VWS V14.01,2013-01-20 07:16:00,
2013-01-20 01:19:00,29.9,22.3,30.09,WNW,300,6.0,18.0,73,0.00,,---,0.00,VWS V14.01,2013-01-20 07:19:00,
2013-01-20 01:20:00,29.9,22.3,30.09,NNW,329,10.0,18.0,73,0.00,,---,0.00,VWS V14.01,2013-01-20 07:20:00,
2013-01-20 01:21:00,29.8,22.2,30.09,NW,323,10.0,18.0,73,0.00,,---,0.00,VWS V14.01,2013-01-20 07:21:00,
2013-01-20 01:24:00,29.6,21.7,30.09,NNW,329,9.0,18.0,72,0.00,,---,0.00,VWS V14.01,2013-01-20 07:24:00,
2013-01-20 01:25:00,29.6,21.7,30.09,NW,313,7.0,18.0,72,0.00,,---,0.00,VWS V14.01,2013-01-20 07:25:00,
2013-01-20 01:26:00,29.6,21.7,30.09,NW,325,6.0,18.0,72,0.00,,---,0.00,VWS V14.01,2013-01-20 07:26:00,
2013-01-20 01:29:00,29.4,21.5,30.09,WNW,295,7.0,18.0,72,0.00,,---,0.00,VWS V14.01,2013-01-20 07:29:00,
2013-01-20 01:30:00,29.3,21.4,30.09,WNW,300,6.0,18.0,72,0.00,,---,0.00,VWS V14.01,2013-01-20 07:30:00,
2013-01-20 01:31:00,29.2,21.3,30.09,WNW,297,4.0,9.0,72,0.00,,---,0.00,VWS V14.01,2013-01-20 07:31:00,
2013-01-20 01:34:00,29.1,21.2,30.09,NW,311,3.0,14.0,72,0.00,,---,0.00,VWS V14.01,2013-01-20 07:34:00,
2013-01-20 01:35:00,29.1,21.2,30.09,NW,310,6.0,15.0,72,0.00,,---,0.00,VWS V14.01,2013-01-20 07:35:00,
2013-01-20 01:36:00,29.0,21.1,30.09,NW,308,5.0,15.0,72,0.00,,---,0.00,VWS V14.01,2013-01-20 07:36:00,
2013-01-20 01:39:00,28.9,21.0,30.10,NW,323,4.0,15.0,72,0.00,,---,0.00,VWS V14.01,2013-01-20 07:39:00,
2013-01-20 01:40:00,28.9,21.0,30.09,NW,317,7.0,15.0,72,0.00,,---,0.00,VWS V14.01,2013-01-20 07:40:00,
2013-01-20 01:42:00,28.8,20.9,30.10,North,355,5.0,15.0,72,0.00,,---,0.00,VWS V14.01,2013-01-20 07:42:00,
2013-01-20 01:44:00,28.6,19.7,30.10,North,360,5.0,15.0,69,0.00,,---,0.00,VWS V14.01,2013-01-20 07:44:00,
2013-01-20 01:45:00,28.5,19.3,30.10,NNW,345,7.0,15.0,68,0.00,,---,0.00,VWS V14.01,2013-01-20 07:45:00,
2013-01-20 01:47:00,28.4,18.5,30.10,NW,314,4.0,15.0,66,0.00,,---,0.00,VWS V14.01,2013-01-20 07:47:00,
2013-01-20 01:49:00,28.2,18.0,30.10,NW,320,9.0,15.0,65,0.00,,---,0.00,VWS V14.01,2013-01-20 07:49:00,
2013-01-20 01:50:00,28.1,17.1,30.10,NNW,338,9.0,15.0,63,0.00,,---,0.00,VWS V14.01,2013-01-20 07:50:00,
2013-01-20 01:52:00,28.0,17.0,30.10,NW,322,5.0,15.0,63,0.00,,---,0.00,VWS V14.01,2013-01-20 07:52:00,
2013-01-20 01:54:00,27.8,16.9,30.10,NNW,347,6.0,15.0,63,0.00,,---,0.00,VWS V14.01,2013-01-20 07:54:00,
2013-01-20 01:55:00,27.7,16.0,30.11,NNW,334,5.0,15.0,61,0.00,,---,0.00,VWS V14.01,2013-01-20 07:55:00,
2013-01-20 01:57:00,27.6,15.9,30.11,WNW,303,5.0,15.0,61,0.00,,---,0.00,VWS V14.01,2013-01-20 07:57:00,
2013-01-20 01:59:00,27.4,15.4,30.11,WNW,302,13.0,15.0,60,0.00,,---,0.00,VWS V14.01,2013-01-20 07:59:00,
2013-01-20 02:01:00,27.4,15.4,30.11,NNW,327,10.0,10.0,60,0.00,,---,0.00,VWS V14.01,2013-01-20 08:01:00,
2013-01-20 02:02:00,27.3,15.3,30.12,NNW,328,9.0,16.0,60,0.00,,---,0.00,VWS V14.01,2013-01-20 08:02:00,
2013-01-20 02:04:00,27.1,14.7,30.12,NNE,13,5.0,16.0,59,0.00,,---,0.00,VWS V14.01,2013-01-20 08:04:00,
2013-01-20 02:06:00,27.1,14.7,30.12,North,355,9.0,16.0,59,0.00,,---,0.00,VWS V14.01,2013-01-20 08:06:00,
2013-01-20 02:07:00,27.0,14.6,30.12,NW,321,6.0,16.0,59,0.00,,---,0.00,VWS V14.01,2013-01-20 08:07:00,
2013-01-20 02:10:00,26.9,14.5,30.12,NW,311,6.0,16.0,59,0.00,,---,0.00,VWS V14.01,2013-01-20 08:10:00,
2013-01-20 02:11:00,26.8,14.4,30.12,NW,323,12.0,16.0,59,0.00,,---,0.00,VWS V14.01,2013-01-20 08:11:00,
2013-01-20 02:12:00,26.7,14.3,30.13,NNW,327,9.0,16.0,59,0.00,,---,0.00,VWS V14.01,2013-01-20 08:12:00,
2013-01-20 02:15:00,26.7,14.3,30.13,NW,309,10.0,16.0,59,0.00,,---,0.00,VWS V14.01,2013-01-20 08:15:00,
2013-01-20 02:16:00,26.7,14.3,30.13,NNW,338,11.0,16.0,59,0.00,,---,0.00,VWS V14.01,2013-01-20 08:16:00,
2013-01-20 02:18:00,26.6,14.6,30.13,West,278,7.0,16.0,60,0.00,,---,0.00,VWS V14.01,2013-01-20 08:18:00,
2013-01-20 02:20:00,26.4,14.4,30.13,NNW,333,6.0,17.0,60,0.00,,---,0.00,VWS V14.01,2013-01-20 08:20:00,
2013-01-20 02:21:00,26.4,14.4,30.13,West,270,6.0,17.0,60,0.00,,---,0.00,VWS V14.01,2013-01-20 08:21:00,
2013-01-20 02:22:00,26.3,14.7,30.13,NNW,335,13.0,17.0,61,0.00,,---,0.00,VWS V14.01,2013-01-20 08:22:00,
2013-01-20 02:23:00,26.3,14.7,30.13,NW,311,6.0,17.0,61,0.00,,---,0.00,VWS V14.01,2013-01-20 08:23:00,
2013-01-20 02:25:00,26.2,15.0,30.13,NW,307,10.0,17.0,62,0.00,,---,0.00,VWS V14.01,2013-01-20 08:25:00,
2013-01-20 02:26:00,26.2,15.0,30.13,NW,312,10.0,17.0,62,0.00,,---,0.00,VWS V14.01,2013-01-20 08:26:00,
2013-01-20 02:27:00,26.1,14.5,30.14,WNW,297,6.0,17.0,61,0.00,,---,0.00,VWS V14.01,2013-01-20 08:27:00,
2013-01-20 02:28:00,26.1,14.5,30.14,NW,325,10.0,17.0,61,0.00,,---,0.00,VWS V14.01,2013-01-20 08:28:00,
2013-01-20 02:30:00,26.0,14.8,30.14,NW,319,14.0,17.0,62,0.00,,---,0.00,VWS V14.01,2013-01-20 08:30:00,
2013-01-20 02:31:00,26.0,14.8,30.14,NW,314,7.0,14.0,62,0.00,,---,0.00,VWS V14.01,2013-01-20 08:31:00,
2013-01-20 02:32:00,25.9,14.7,30.14,WNW,302,5.0,14.0,62,0.00,,---,0.00,VWS V14.01,2013-01-20 08:32:00,
2013-01-20 02:33:00,25.9,14.7,30.14,NW,322,4.0,14.0,62,0.00,,---,0.00,VWS V14.01,2013-01-20 08:33:00,
2013-01-20 02:35:00,25.8,15.0,30.14,NNW,329,5.0,14.0,63,0.00,,---,0.00,VWS V14.01,2013-01-20 08:35:00,
2013-01-20 02:36:00,25.8,15.0,30.14,NW,311,9.0,14.0,63,0.00,,---,0.00,VWS V14.01,2013-01-20 08:36:00,
2013-01-20 02:37:00,25.7,14.9,30.14,NW,319,7.0,14.0,63,0.00,,---,0.00,VWS V14.01,2013-01-20 08:37:00,
2013-01-20 02:38:00,25.7,14.9,30.14,NW,306,3.0,14.0,63,0.00,,---,0.00,VWS V14.01,2013-01-20 08:38:00,
2013-01-20 02:40:00,25.6,15.1,30.14,NNW,331,4.0,14.0,64,0.00,,---,0.00,VWS V14.01,2013-01-20 08:40:00,
2013-01-20 02:41:00,25.5,15.0,30.14,WNW,294,4.0,14.0,64,0.00,,---,0.00,VWS V14.01,2013-01-20 08:41:00,
2013-01-20 02:42:00,25.5,15.0,30.14,NW,310,1.0,14.0,64,0.00,,---,0.00,VWS V14.01,2013-01-20 08:42:00,
2013-01-20 02:43:00,25.4,14.9,30.14,WNW,290,6.0,14.0,64,0.00,,---,0.00,VWS V14.01,2013-01-20 08:43:00,
2013-01-20 02:46:00,25.2,14.8,30.14,WNW,289,9.0,14.0,64,0.00,,---,0.00,VWS V14.01,2013-01-20 08:46:00,
2013-01-20 02:47:00,25.1,14.3,30.15,NW,322,5.0,14.0,63,0.00,,---,0.00,VWS V14.01,2013-01-20 08:47:00,
2013-01-20 02:48:00,25.1,14.6,30.14,NW,309,6.0,14.0,64,0.00,,---,0.00,VWS V14.01,2013-01-20 08:48:00,
2013-01-20 02:51:00,24.9,14.5,30.15,NNW,327,5.0,14.0,64,0.00,,---,0.00,VWS V14.01,2013-01-20 08:51:00,
2013-01-20 02:52:00,24.8,14.0,30.15,WNW,282,14.0,14.0,63,0.00,,---,0.00,VWS V14.01,2013-01-20 08:52:00,
2013-01-20 02:53:00,24.8,13.6,30.15,NW,315,13.0,14.0,62,0.00,,---,0.00,VWS V14.01,2013-01-20 08:53:00,
2013-01-20 02:56:00,24.6,13.1,30.15,NW,304,7.0,14.0,61,0.00,,---,0.00,VWS V14.01,2013-01-20 08:56:00,
2013-01-20 02:57:00,24.5,12.6,30.15,NW,321,3.0,14.0,60,0.00,,---,0.00,VWS V14.01,2013-01-20 08:57:00,
2013-01-20 02:58:00,24.4,12.1,30.15,NNW,327,3.0,14.0,59,0.00,,---,0.00,VWS V14.01,2013-01-20 08:58:00,
2013-01-20 03:01:00,24.2,11.6,30.15,NW,326,8.0,11.0,58,0.00,,---,0.00,VWS V14.01,2013-01-20 09:01:00,
2013-01-20 03:02:00,24.1,11.1,30.15,NW,322,6.0,12.0,57,0.00,,---,0.00,VWS V14.01,2013-01-20 09:02:00,
2013-01-20 03:03:00,24.0,11.0,30.15,WNW,300,6.0,12.0,57,0.00,,---,0.00,VWS V14.01,2013-01-20 09:03:00,
2013-01-20 03:06:00,23.9,10.9,30.16,NW,319,9.0,14.0,57,0.00,,---,0.00,VWS V14.01,2013-01-20 09:06:00,
2013-01-20 03:07:00,23.8,10.8,30.16,NW,316,4.0,14.0,57,0.00,,---,0.00,VWS V14.01,2013-01-20 09:07:00,
2013-01-20 03:08:00,23.7,10.7,30.16,NNW,333,5.0,14.0,57,0.00,,---,0.00,VWS V14.01,2013-01-20 09:08:00,
2013-01-20 03:11:00,23.6,11.0,30.16,NNW,327,5.0,14.0,58,0.00,,---,0.00,VWS V14.01,2013-01-20 09:11:00,
2013-01-20 03:12:00,23.6,11.0,30.16,NNW,331,10.0,14.0,58,0.00,,---,0.00,VWS V14.01,2013-01-20 09:12:00,
2013-01-20 03:13:00,23.6,11.0,30.16,NNW,327,2.0,14.0,58,0.00,,---,0.00,VWS V14.01,2013-01-20 09:13:00,
2013-01-20 03:16:00,23.4,11.2,30.16,WNW,301,5.0,14.0,59,0.00,,---,0.00,VWS V14.01,2013-01-20 09:16:00,
2013-01-20 03:18:00,23.4,11.2,30.16,NNW,333,4.0,14.0,59,0.00,,---,0.00,VWS V14.01,2013-01-20 09:18:00,
2013-01-20 03:22:00,23.4,11.6,30.16,NW,325,3.0,14.0,60,0.00,,---,0.00,VWS V14.01,2013-01-20 09:22:00,
2013-01-20 03:23:00,23.4,11.6,30.16,NW,325,3.0,14.0,60,0.00,,---,0.00,VWS V14.01,2013-01-20 09:23:00,
2013-01-20 03:27:00,23.2,11.8,30.16,NW,315,4.0,14.0,61,0.00,,---,0.00,VWS V14.01,2013-01-20 09:27:00,
2013-01-20 03:28:00,23.2,12.1,30.16,NW,326,4.0,14.0,62,0.00,,---,0.00,VWS V14.01,2013-01-20 09:28:00,
2013-01-20 03:32:00,23.1,12.4,30.16,NW,324,4.0,6.0,63,0.00,,---,0.00,VWS V14.01,2013-01-20 09:32:00,
2013-01-20 03:33:00,23.0,12.3,30.16,NW,320,2.0,6.0,63,0.00,,---,0.00,VWS V14.01,2013-01-20 09:33:00,
2013-01-20 03:37:00,23.0,12.3,30.16,NW,316,4.0,7.0,63,0.00,,---,0.00,VWS V14.01,2013-01-20 09:37:00,
2013-01-20 03:38:00,23.0,12.3,30.16,NNW,339,6.0,7.0,63,0.00,,---,0.00,VWS V14.01,2013-01-20 09:38:00,
2013-01-20 03:42:00,23.0,12.6,30.16,NW,308,9.0,10.0,64,0.00,,---,0.00,VWS V14.01,2013-01-20 09:42:00,
2013-01-20 03:43:00,23.0,12.6,30.16,NW,321,7.0,10.0,64,0.00,,---,0.00,VWS V14.01,2013-01-20 09:43:00,
2013-01-20 03:44:00,23.0,12.6,30.16,NW,323,5.0,10.0,64,0.00,,---,0.00,VWS V14.01,2013-01-20 09:44:00,
2013-01-20 03:48:00,22.9,12.9,30.16,NW,313,5.0,10.0,65,0.00,,---,0.00,VWS V14.01,2013-01-20 09:48:00,
2013-01-20 03:49:00,22.9,13.3,30.17,NW,308,4.0,10.0,66,0.00,,---,0.00,VWS V14.01,2013-01-20 09:49:00,
2013-01-20 03:53:00,22.8,13.5,30.17,West,275,6.0,10.0,67,0.00,,---,0.00,VWS V14.01,2013-01-20 09:53:00,
2013-01-20 03:54:00,22.8,13.2,30.17,WNW,288,7.0,12.0,66,0.00,,---,0.00,VWS V14.01,2013-01-20 09:54:00,
2013-01-20 03:58:00,22.8,12.1,30.18,NNW,333,13.0,20.0,63,0.00,,---,0.00,VWS V14.01,2013-01-20 09:58:00,
2013-01-20 03:59:00,22.8,12.1,30.18,WNW,294,13.0,20.0,63,0.00,,---,0.00,VWS V14.01,2013-01-20 09:59:00,
2013-01-20 04:03:00,22.6,11.9,30.18,NW,304,6.0,18.0,63,0.00,,---,0.00,VWS V14.01,2013-01-20 10:03:00,
2013-01-20 04:04:00,22.6,11.9,30.18,WNW,290,7.0,18.0,63,0.00,,---,0.00,VWS V14.01,2013-01-20 10:04:00,
2013-01-20 04:08:00,22.5,11.8,30.18,WNW,298,4.0,18.0,63,0.00,,---,0.00,VWS V14.01,2013-01-20 10:08:00,
2013-01-20 04:09:00,22.5,11.8,30.18,WNW,283,7.0,18.0,63,0.00,,---,0.00,VWS V14.01,2013-01-20 10:09:00,
2013-01-20 04:13:00,22.3,12.0,30.18,NW,317,6.0,18.0,64,0.00,,---,0.00,VWS V14.01,2013-01-20 10:13:00,
2013-01-20 04:14:00,22.3,12.0,30.18,NW,326,4.0,18.0,64,0.00,,---,0.00,VWS V14.01,2013-01-20 10:14:00,
2013-01-20 04:15:00,22.2,11.9,30.18,NW,312,9.0,18.0,64,0.00,,---,0.00,VWS V14.01,2013-01-20 10:15:00,
2013-01-20 04:18:00,22.2,11.5,30.18,NNW,344,14.0,18.0,63,0.00,,---,0.00,VWS V14.01,2013-01-20 10:18:00,
2013-01-20 04:19:00,22.2,11.9,30.18,NNW,338,9.0,18.0,64,0.00,,---,0.00,VWS V14.01,2013-01-20 10:19:00,
2013-01-20 04:20:00,22.1,11.8,30.18,NNW,348,10.0,18.0,64,0.00,,---,0.00,VWS V14.01,2013-01-20 10:20:00,
2013-01-20 04:23:00,22.0,11.7,30.18,NNW,340,13.0,19.0,64,0.00,,---,0.00,VWS V14.01,2013-01-20 10:23:00,
2013-01-20 04:24:00,22.0,11.4,30.18,NW,308,12.0,19.0,63,0.00,,---,0.00,VWS V14.01,2013-01-20 10:24:00,
2013-01-20 04:25:00,22.0,11.4,30.18,NNW,331,17.0,19.0,63,0.00,,---,0.00,VWS V14.01,2013-01-20 10:25:00,
2013-01-20 04:28:00,21.8,11.2,30.18,NNW,336,7.0,19.0,63,0.00,,---,0.00,VWS V14.01,2013-01-20 10:28:00,
2013-01-20 04:29:00,21.8,11.2,30.18,NW,304,8.0,19.0,63,0.00,,---,0.00,VWS V14.01,2013-01-20 10:29:00,
2013-01-20 04:30:00,21.7,11.1,30.19,NNW,336,11.0,19.0,63,0.00,,---,0.00,VWS V14.01,2013-01-20 10:30:00,
2013-01-20 04:33:00,21.6,11.0,30.18,NW,306,5.0,14.0,63,0.00,,---,0.00,VWS V14.01,2013-01-20 10:33:00,
2013-01-20 04:34:00,21.6,11.0,30.18,NW,325,11.0,14.0,63,0.00,,---,0.00,VWS V14.01,2013-01-20 10:34:00,
2013-01-20 04:35:00,21.6,11.0,30.18,NW,314,9.0,14.0,63,0.00,,---,0.00,VWS V14.01,2013-01-20 10:35:00,
2013-01-20 04:38:00,21.5,10.9,30.19,NW,313,10.0,14.0,63,0.00,,---,0.00,VWS V14.01,2013-01-20 10:38:00,
2013-01-20 04:39:00,21.5,10.9,30.19,NW,311,2.0,14.0,63,0.00,,---,0.00,VWS V14.01,2013-01-20 10:39:00,
2013-01-20 04:40:00,21.5,10.9,30.19,NW,321,12.0,14.0,63,0.00,,---,0.00,VWS V14.01,2013-01-20 10:40:00,
2013-01-20 04:44:00,21.4,11.1,30.18,NW,321,10.0,14.0,64,0.00,,---,0.00,VWS V14.01,2013-01-20 10:44:00,
2013-01-20 04:45:00,21.4,11.1,30.18,North,350,9.0,14.0,64,0.00,,---,0.00,VWS V14.01,2013-01-20 10:45:00,
2013-01-20 04:49:00,21.3,11.0,30.18,NNW,327,9.0,14.0,64,0.00,,---,0.00,VWS V14.01,2013-01-20 10:49:00,
2013-01-20 04:50:00,21.3,11.0,30.18,WNW,300,6.0,14.0,64,0.00,,---,0.00,VWS V14.01,2013-01-20 10:50:00,
2013-01-20 04:54:00,21.2,11.3,30.18,NNW,331,5.0,16.0,65,0.00,,---,0.00,VWS V14.01,2013-01-20 10:54:00,
2013-01-20 04:55:00,21.2,11.3,30.18,NW,323,6.0,16.0,65,0.00,,---,0.00,VWS V14.01,2013-01-20 10:55:00,
2013-01-20 04:59:00,21.1,11.2,30.18,NNW,329,4.0,16.0,65,0.00,,---,0.00,VWS V14.01,2013-01-20 10:59:00,
2013-01-20 05:00:00,21.1,11.2,30.18,NW,325,10.0,16.0,65,0.00,,---,0.00,VWS V14.01,2013-01-20 11:00:00,
2013-01-20 05:04:00,20.9,10.3,30.19,NW,322,8.0,16.0,63,0.00,,---,0.00,VWS V14.01,2013-01-20 11:04:00,
2013-01-20 05:05:00,20.9,9.9,30.19,NNW,332,6.0,16.0,62,0.00,,---,0.00,VWS V14.01,2013-01-20 11:05:00,
2013-01-20 05:09:00,20.8,10.2,30.19,NW,310,3.0,16.0,63,0.00,,---,0.00,VWS V14.01,2013-01-20 11:09:00,
2013-01-20 05:10:00,20.7,10.1,30.19,NW,325,1.0,16.0,63,0.00,,---,0.00,VWS V14.01,2013-01-20 11:10:00,
2013-01-20 05:14:00,20.6,10.4,30.19,West,275,5.0,16.0,64,0.00,,---,0.00,VWS V14.01,2013-01-20 11:14:00,
2013-01-20 05:15:00,20.6,10.4,30.19,NW,319,3.0,16.0,64,0.00,,---,0.00,VWS V14.01,2013-01-20 11:15:00,
2013-01-20 05:16:00,20.6,10.4,30.19,NNW,327,6.0,16.0,64,0.00,,---,0.00,VWS V14.01,2013-01-20 11:16:00,
2013-01-20 05:19:00,20.5,10.3,30.19,NW,323,10.0,16.0,64,0.00,,---,0.00,VWS V14.01,2013-01-20 11:19:00,
2013-01-20 05:20:00,20.4,10.2,30.19,NW,304,5.0,16.0,64,0.00,,---,0.00,VWS V14.01,2013-01-20 11:20:00,
2013-01-20 05:21:00,20.4,10.2,30.19,NW,323,8.0,16.0,64,0.00,,---,0.00,VWS V14.01,2013-01-20 11:21:00,
2013-01-20 05:24:00,20.1,9.9,30.19,NW,322,5.0,16.0,64,0.00,,---,0.00,VWS V14.01,2013-01-20 11:24:00,
2013-01-20 05:25:00,20.1,10.2,30.19,NW,322,7.0,16.0,65,0.00,,---,0.00,VWS V14.01,2013-01-20 11:25:00,
2013-01-20 05:26:00,20.0,10.1,30.19,NNW,337,6.0,16.0,65,0.00,,---,0.00,VWS V14.01,2013-01-20 11:26:00,
2013-01-20 05:29:00,19.9,9.4,30.19,NNW,329,9.0,16.0,63,0.00,,---,0.00,VWS V14.01,2013-01-20 11:29:00,
2013-01-20 05:30:00,19.8,9.3,30.19,WNW,300,6.0,16.0,63,0.00,,---,0.00,VWS V14.01,2013-01-20 11:30:00,
2013-01-20 05:31:00,19.8,9.6,30.19,WNW,292,5.0,9.0,64,0.00,,---,0.00,VWS V14.01,2013-01-20 11:31:00,
2013-01-20 05:34:00,19.7,9.5,30.19,NW,321,7.0,10.0,64,0.00,,---,0.00,VWS V14.01,2013-01-20 11:34:00,
2013-01-20 05:35:00,19.7,9.2,30.19,NNW,341,4.0,10.0,63,0.00,,---,0.00,VWS V14.01,2013-01-20 11:35:00,
2013-01-20 05:36:00,19.7,9.2,30.19,NW,319,3.0,10.0,63,0.00,,---,0.00,VWS V14.01,2013-01-20 11:36:00,
2013-01-20 05:39:00,19.7,9.5,30.19,NW,311,5.0,11.0,64,0.00,,---,0.00,VWS V14.01,2013-01-20 11:39:00,
2013-01-20 05:40:00,19.7,9.5,30.19,NNW,340,5.0,11.0,64,0.00,,---,0.00,VWS V14.01,2013-01-20 11:40:00,
2013-01-20 05:41:00,19.7,9.9,30.20,NW,308,5.0,11.0,65,0.00,,---,0.00,VWS V14.01,2013-01-20 11:41:00,
2013-01-20 05:44:00,19.7,9.9,30.20,NW,305,2.0,11.0,65,0.00,,---,0.00,VWS V14.01,2013-01-20 11:44:00,
2013-01-20 05:45:00,19.7,9.9,30.20,NW,317,8.0,11.0,65,0.00,,---,0.00,VWS V14.01,2013-01-20 11:45:00,
2013-01-20 05:46:00,19.7,9.9,30.20,WNW,300,4.0,11.0,65,0.00,,---,0.00,VWS V14.01,2013-01-20 11:46:00,
2013-01-20 05:50:00,19.7,9.9,30.20,North,355,1.0,12.0,65,0.00,,---,0.00,VWS V14.01,2013-01-20 11:50:00,
2013-01-20 05:51:00,19.6,9.8,30.20,NNW,331,4.0,12.0,65,0.00,,---,0.00,VWS V14.01,2013-01-20 11:51:00,
2013-01-20 05:55:00,19.6,9.8,30.21,North,360,7.0,12.0,65,0.00,,---,0.00,VWS V14.01,2013-01-20 11:55:00,
2013-01-20 05:56:00,19.5,9.7,30.21,North,351,1.0,12.0,65,0.00,,---,0.00,VWS V14.01,2013-01-20 11:56:00,
2013-01-20 05:57:00,19.6,9.8,30.21,NW,325,3.0,12.0,65,0.00,,---,0.00,VWS V14.01,2013-01-20 11:57:00,
2013-01-20 06:00:00,19.5,10.0,30.21,NNW,343,0.0,12.0,66,0.00,,---,0.00,VWS V14.01,2013-01-20 12:00:00,
2013-01-20 06:02:00,19.4,9.9,30.21,NW,320,2.0,12.0,66,0.00,,---,0.00,VWS V14.01,2013-01-20 12:02:00,
2013-01-20 06:05:00,19.3,9.8,30.21,NW,320,1.0,12.0,66,0.00,,---,0.00,VWS V14.01,2013-01-20 12:05:00,
2013-01-20 06:07:00,19.3,9.8,30.21,NNW,328,0.0,12.0,66,0.00,,---,0.00,VWS V14.01,2013-01-20 12:07:00,
2013-01-20 06:10:00,19.2,10.1,30.21,North,355,0.0,12.0,67,0.00,,---,0.00,VWS V14.01,2013-01-20 12:10:00,
2013-01-20 06:11:00,19.2,10.1,30.22,North,355,0.0,12.0,67,0.00,,---,0.00,VWS V14.01,2013-01-20 12:11:00,
2013-01-20 06:12:00,19.2,10.1,30.22,North,355,2.0,12.0,67,0.00,,---,0.00,VWS V14.01,2013-01-20 12:12:00,
2013-01-20 06:15:00,19.1,10.0,30.22,NNE,19,3.0,12.0,67,0.00,,---,0.00,VWS V14.01,2013-01-20 12:15:00,
2013-01-20 06:16:00,19.1,10.0,30.22,NNW,331,2.0,12.0,67,0.00,,---,0.00,VWS V14.01,2013-01-20 12:16:00,
2013-01-20 06:17:00,19.1,10.0,30.22,NNW,332,1.0,12.0,67,0.00,,---,0.00,VWS V14.01,2013-01-20 12:17:00,
2013-01-20 06:20:00,19.1,10.0,30.23,NNW,343,2.0,12.0,67,0.00,,---,0.00,VWS V14.01,2013-01-20 12:20:00,
2013-01-20 06:21:00,19.1,10.3,30.23,NW,320,3.0,12.0,68,0.00,,---,0.00,VWS V14.01,2013-01-20 12:21:00,
2013-01-20 06:22:00,19.1,10.3,30.23,NW,319,1.0,12.0,68,0.00,,---,0.00,VWS V14.01,2013-01-20 12:22:00,
2013-01-20 06:26:00,19.1,10.6,30.23,NW,315,3.0,12.0,69,0.00,,---,0.00,VWS V14.01,2013-01-20 12:26:00,
2013-01-20 06:27:00,19.1,10.6,30.23,NNW,333,2.0,12.0,69,0.00,,---,0.00,VWS V14.01,2013-01-20 12:27:00,
2013-01-20 06:31:00,19.0,10.5,30.22,NNW,330,4.0,4.0,69,0.00,,---,0.00,VWS V14.01,2013-01-20 12:31:00,
2013-01-20 06:32:00,19.0,10.5,30.23,NNW,333,2.0,4.0,69,0.00,,---,0.00,VWS V14.01,2013-01-20 12:32:00,
2013-01-20 06:36:00,19.0,10.5,30.23,NW,315,2.0,7.0,69,0.00,,---,0.00,VWS V14.01,2013-01-20 12:36:00,
2013-01-20 06:37:00,18.9,10.4,30.23,NW,311,4.0,7.0,69,0.00,,---,0.00,VWS V14.01,2013-01-20 12:37:00,
2013-01-20 06:41:00,18.8,10.6,30.23,NW,304,1.0,7.0,70,0.00,,---,0.00,VWS V14.01,2013-01-20 12:41:00,
2013-01-20 06:43:00,18.7,10.6,30.23,NNW,333,3.0,7.0,70,0.00,,---,0.00,VWS V14.01,2013-01-20 12:43:00,
2013-01-20 06:46:00,18.6,10.5,30.23,NNW,344,4.0,7.0,70,0.00,,---,0.00,VWS V14.01,2013-01-20 12:46:00,
2013-01-20 06:48:00,18.4,12.1,30.23,NW,307,1.0,7.0,76,0.00,,---,0.00,VWS V14.01,2013-01-20 12:48:00,
2013-01-20 06:51:00,18.2,10.1,30.23,NW,312,4.0,7.0,70,0.00,,---,0.00,VWS V14.01,2013-01-20 12:51:00,
2013-01-20 06:52:00,18.2,10.1,30.23,NW,316,5.0,7.0,70,0.00,,---,0.00,VWS V14.01,2013-01-20 12:52:00,
2013-01-20 06:53:00,18.2,10.1,30.23,NW,321,2.0,7.0,70,0.00,,---,0.00,VWS V14.01,2013-01-20 12:53:00,
2013-01-20 06:56:00,18.0,9.6,30.23,NNW,340,5.0,10.0,69,0.00,,---,0.00,VWS V14.01,2013-01-20 12:56:00,
2013-01-20 06:57:00,18.0,9.6,30.23,NNW,343,2.0,10.0,69,0.00,,---,0.00,VWS V14.01,2013-01-20 12:57:00,
2013-01-20 06:58:00,17.9,9.5,30.23,North,350,3.0,10.0,69,0.00,,---,0.00,VWS V14.01,2013-01-20 12:58:00,
2013-01-20 07:01:00,17.7,8.9,30.23,NNW,327,0.0,4.0,68,0.00,,---,0.00,VWS V14.01,2013-01-20 13:01:00,
2013-01-20 07:02:00,17.7,8.9,30.23,North,360,6.0,8.0,68,0.00,,---,0.00,VWS V14.01,2013-01-20 13:02:00,
2013-01-20 07:03:00,17.7,8.9,30.23,NNW,345,1.0,8.0,68,0.00,,---,0.00,VWS V14.01,2013-01-20 13:03:00,
2013-01-20 07:04:00,17.6,8.9,30.23,North,355,4.0,8.0,68,0.00,,---,0.00,VWS V14.01,2013-01-20 13:04:00,
2013-01-20 07:06:00,17.5,8.8,30.23,North,355,5.0,8.0,68,0.00,,---,0.00,VWS V14.01,2013-01-20 13:06:00,
2013-01-20 07:07:00,17.5,8.8,30.24,North,355,3.0,8.0,68,0.00,,---,0.00,VWS V14.01,2013-01-20 13:07:00,
2013-01-20 07:08:00,17.5,8.8,30.24,North,5,0.0,8.0,68,0.00,,---,0.00,VWS V14.01,2013-01-20 13:08:00,
2013-01-20 07:09:00,17.5,8.8,30.24,NNW,342,5.0,8.0,68,0.00,,---,0.00,VWS V14.01,2013-01-20 13:09:00,
2013-01-20 07:11:00,17.4,8.7,30.24,NW,323,1.0,9.0,68,0.00,,---,0.00,VWS V14.01,2013-01-20 13:11:00,
2013-01-20 07:12:00,17.4,8.7,30.24,NNW,342,3.0,9.0,68,0.00,,---,0.00,VWS V14.01,2013-01-20 13:12:00,
2013-01-20 07:13:00,17.3,8.6,30.23,North,355,1.0,9.0,68,0.00,,---,0.00,VWS V14.01,2013-01-20 13:13:00,
2013-01-20 07:14:00,17.3,8.6,30.24,NNW,345,3.0,10.0,68,0.00,,---,0.00,VWS V14.01,2013-01-20 13:14:00,
2013-01-20 07:16:00,17.2,8.1,30.24,NNE,21,3.0,10.0,67,0.00,,---,0.00,VWS V14.01,2013-01-20 13:16:00,
2013-01-20 07:17:00,17.2,8.1,30.24,North,5,2.0,10.0,67,0.00,,---,0.00,VWS V14.01,2013-01-20 13:17:00,
2013-01-20 07:18:00,17.1,8.1,30.24,WNW,296,4.0,10.0,67,0.00,,---,0.00,VWS V14.01,2013-01-20 13:18:00,
2013-01-20 07:19:00,17.1,8.1,30.24,NW,310,5.0,10.0,67,0.00,,---,0.00,VWS V14.01,2013-01-20 13:19:00,
2013-01-20 07:21:00,17.1,8.1,30.24,NNW,331,2.0,10.0,67,0.00,,---,0.00,VWS V14.01,2013-01-20 13:21:00,
2013-01-20 07:22:00,17.1,8.1,30.24,NNW,346,3.0,10.0,67,0.00,,---,0.00,VWS V14.01,2013-01-20 13:22:00,
2013-01-20 07:23:00,17.0,7.9,30.24,North,5,0.0,10.0,67,0.00,,---,0.00,VWS V14.01,2013-01-20 13:23:00,
2013-01-20 07:24:00,17.0,7.9,30.24,North,350,3.0,10.0,67,0.00,,---,0.00,VWS V14.01,2013-01-20 13:24:00,
2013-01-20 07:26:00,17.0,7.9,30.25,NW,325,2.0,10.0,67,0.00,,---,0.00,VWS V14.01,2013-01-20 13:26:00,
2013-01-20 07:27:00,16.9,7.8,30.25,NW,317,3.0,10.0,67,0.00,,---,0.00,VWS V14.01,2013-01-20 13:27:00,
2013-01-20 07:28:00,16.9,7.8,30.25,NW,315,2.0,10.0,67,0.00,,---,0.00,VWS V14.01,2013-01-20 13:28:00,
2013-01-20 07:29:00,16.9,7.8,30.25,NW,320,0.0,10.0,67,0.00,,---,0.00,VWS V14.01,2013-01-20 13:29:00,
2013-01-20 07:32:00,16.9,7.8,30.25,North,360,3.0,3.0,67,0.00,,---,0.00,VWS V14.01,2013-01-20 13:32:00,
2013-01-20 07:33:00,16.9,8.2,30.25,NW,309,0.0,3.0,68,0.00,,---,0.00,VWS V14.01,2013-01-20 13:33:00,
2013-01-20 07:34:00,16.9,8.2,30.25,North,5,3.0,5.0,68,0.00,,---,0.00,VWS V14.01,2013-01-20 13:34:00,
2013-01-20 07:37:00,16.8,8.1,30.25,NNW,327,0.0,5.0,68,0.00,,---,0.00,VWS V14.01,2013-01-20 13:37:00,
2013-01-20 07:38:00,16.8,8.1,30.25,NNW,329,3.0,5.0,68,0.00,,---,0.00,VWS V14.01,2013-01-20 13:38:00,
2013-01-20 07:39:00,16.8,8.1,30.26,NNW,340,1.0,5.0,68,0.00,,---,0.00,VWS V14.01,2013-01-20 13:39:00,
2013-01-20 07:42:00,16.7,8.0,30.25,North,355,0.0,7.0,68,0.00,,---,0.00,VWS V14.01,2013-01-20 13:42:00,
2013-01-20 07:43:00,16.8,8.1,30.25,North,355,2.0,7.0,68,0.00,,---,0.00,VWS V14.01,2013-01-20 13:43:00,
2013-01-20 07:45:00,16.7,8.0,30.25,North,9,4.0,7.0,68,0.00,,---,0.00,VWS V14.01,2013-01-20 13:45:00,
2013-01-20 07:47:00,16.7,8.0,30.25,North,9,3.0,7.0,68,0.00,,---,0.00,VWS V14.01,2013-01-20 13:47:00,
2013-01-20 07:48:00,16.7,8.0,30.25,North,9,2.0,7.0,68,0.00,,---,0.00,VWS V14.01,2013-01-20 13:48:00,
2013-01-20 07:50:00,16.7,8.0,30.25,North,5,4.0,7.0,68,0.00,,---,0.00,VWS V14.01,2013-01-20 13:50:00,
2013-01-20 07:52:00,16.6,7.9,30.24,North,5,0.0,7.0,68,0.00,,---,0.00,VWS V14.01,2013-01-20 13:52:00,
2013-01-20 07:53:00,16.7,8.0,30.24,North,5,0.0,7.0,68,0.00,,---,0.00,VWS V14.01,2013-01-20 13:53:00,
2013-01-20 07:54:00,16.6,7.9,30.24,North,5,0.0,7.0,68,0.00,,---,0.00,VWS V14.01,2013-01-20 13:54:00,
2013-01-20 07:55:00,16.6,7.9,30.25,North,5,0.0,7.0,68,0.00,,---,0.00,VWS V14.01,2013-01-20 13:55:00,
2013-01-20 07:57:00,16.6,8.2,30.25,North,5,1.0,7.0,69,0.00,,---,0.00,VWS V14.01,2013-01-20 13:57:00,
2013-01-20 07:58:00,16.6,8.2,30.25,North,5,0.0,7.0,69,0.00,,---,0.00,VWS V14.01,2013-01-20 13:58:00,
2013-01-20 07:59:00,16.6,8.2,30.25,North,5,0.0,7.0,69,0.00,,---,0.00,VWS V14.01,2013-01-20 13:59:00,
2013-01-20 08:00:00,16.6,8.2,30.25,North,5,0.0,0.0,69,0.00,,---,0.00,VWS V14.01,2013-01-20 14:00:00,
2013-01-20 08:02:00,16.6,8.2,30.25,North,5,0.0,0.0,69,0.00,,---,0.00,VWS V14.01,2013-01-20 14:02:00,
2013-01-20 08:03:00,16.7,8.3,30.25,North,360,0.0,1.0,69,0.00,,---,0.00,VWS V14.01,2013-01-20 14:03:00,
2013-01-20 08:04:00,16.7,8.3,30.25,North,360,0.0,2.0,69,0.00,,---,0.00,VWS V14.01,2013-01-20 14:04:00,
2013-01-20 08:05:00,16.7,8.3,30.25,North,360,0.0,2.0,69,0.00,,---,0.00,VWS V14.01,2013-01-20 14:05:00,
2013-01-20 08:08:00,16.7,8.3,30.25,North,5,6.0,8.0,69,0.00,,---,0.00,VWS V14.01,2013-01-20 14:08:00,
2013-01-20 08:09:00,16.8,8.4,30.25,North,355,2.0,8.0,69,0.00,,---,0.00,VWS V14.01,2013-01-20 14:09:00,
2013-01-20 08:11:00,16.8,8.4,30.25,North,355,0.0,8.0,69,0.00,,---,0.00,VWS V14.01,2013-01-20 14:11:00,
2013-01-20 08:13:00,16.8,8.4,30.25,North,350,2.0,8.0,69,0.00,,---,0.00,VWS V14.01,2013-01-20 14:13:00,
2013-01-20 08:15:00,16.8,8.1,30.25,North,360,3.0,8.0,68,0.00,,---,0.00,VWS V14.01,2013-01-20 14:15:00,
2013-01-20 08:16:00,16.9,8.2,30.25,North,360,0.0,8.0,68,0.00,,---,0.00,VWS V14.01,2013-01-20 14:16:00,
2013-01-20 08:18:00,16.9,8.2,30.25,North,5,2.0,8.0,68,0.00,,---,0.00,VWS V14.01,2013-01-20 14:18:00,
2013-01-20 08:19:00,16.9,8.2,30.24,North,5,2.0,8.0,68,0.00,,---,0.00,VWS V14.01,2013-01-20 14:19:00,
2013-01-20 08:20:00,16.9,8.2,30.25,North,5,0.0,8.0,68,0.00,,---,0.00,VWS V14.01,2013-01-20 14:20:00,
2013-01-20 08:21:00,17.0,8.3,30.25,North,5,0.0,8.0,68,0.00,,---,0.00,VWS V14.01,2013-01-20 14:21:00,
2013-01-20 08:23:00,17.0,8.6,30.25,North,360,1.0,8.0,69,0.00,,---,0.00,VWS V14.01,2013-01-20 14:23:00,
2013-01-20 08:24:00,17.0,8.3,30.25,North,5,3.0,8.0,68,0.00,,---,0.00,VWS V14.01,2013-01-20 14:24:00,
2013-01-20 08:25:00,17.1,8.4,30.25,North,11,0.0,8.0,68,0.00,,---,0.00,VWS V14.01,2013-01-20 14:25:00,
2013-01-20 08:26:00,17.2,8.5,30.25,North,360,1.0,8.0,68,0.00,,---,0.00,VWS V14.01,2013-01-20 14:26:00,
2013-01-20 08:28:00,17.3,8.9,30.25,North,5,3.0,8.0,69,0.00,,---,0.00,VWS V14.01,2013-01-20 14:28:00,
2013-01-20 08:29:00,17.4,9.0,30.25,North,5,0.0,8.0,69,0.00,,---,0.00,VWS V14.01,2013-01-20 14:29:00,
2013-01-20 08:30:00,17.5,9.1,30.25,North,5,3.0,8.0,69,0.00,,---,0.00,VWS V14.01,2013-01-20 14:30:00,
2013-01-20 08:31:00,17.6,8.9,30.26,NNW,345,4.0,6.0,68,0.00,,---,0.00,VWS V14.01,2013-01-20 14:31:00,
2013-01-20 08:33:00,17.6,8.5,30.26,NNW,346,0.0,6.0,67,0.00,,---,0.00,VWS V14.01,2013-01-20 14:33:00,
2013-01-20 08:34:00,17.6,8.5,30.26,NNW,346,2.0,6.0,67,0.00,,---,0.00,VWS V14.01,2013-01-20 14:34:00,
2013-01-20 08:35:00,17.7,8.6,30.26,NNW,345,1.0,6.0,67,0.00,,---,0.00,VWS V14.01,2013-01-20 14:35:00,
2013-01-20 08:36:00,17.8,8.7,30.26,NNW,345,1.0,6.0,67,0.00,,---,0.00,VWS V14.01,2013-01-20 14:36:00,
2013-01-20 08:38:00,17.9,8.8,30.26,NW,326,2.0,6.0,67,0.00,,---,0.00,VWS V14.01,2013-01-20 14:38:00,
2013-01-20 08:39:00,17.9,8.8,30.26,NNW,328,0.0,6.0,67,0.00,,---,0.00,VWS V14.01,2013-01-20 14:39:00,
2013-01-20 08:40:00,17.9,8.5,30.26,NW,318,1.0,6.0,66,0.00,,---,0.00,VWS V14.01,2013-01-20 14:40:00,
2013-01-20 08:41:00,17.9,8.5,30.26,NW,319,2.0,6.0,66,0.00,,---,0.00,VWS V14.01,2013-01-20 14:41:00,
2013-01-20 08:43:00,18.0,8.6,30.26,North,355,0.0,6.0,66,0.00,,---,0.00,VWS V14.01,2013-01-20 14:43:00,
2013-01-20 08:44:00,18.0,8.6,30.26,NW,311,2.0,6.0,66,0.00,,---,0.00,VWS V14.01,2013-01-20 14:44:00,
2013-01-20 08:45:00,18.1,8.7,30.26,WNW,298,3.0,6.0,66,0.00,,---,0.00,VWS V14.01,2013-01-20 14:45:00,
2013-01-20 08:46:00,18.1,8.7,30.26,WNW,299,1.0,6.0,66,0.00,,---,0.00,VWS V14.01,2013-01-20 14:46:00,
2013-01-20 08:48:00,18.2,8.8,30.26,North,5,3.0,6.0,66,0.00,,---,0.00,VWS V14.01,2013-01-20 14:48:00,
2013-01-20 08:49:00,18.3,8.5,30.26,North,5,2.0,7.0,65,0.00,,---,0.00,VWS V14.01,2013-01-20 14:49:00,
2013-01-20 08:50:00,18.3,8.5,30.26,NW,325,2.0,7.0,65,0.00,,---,0.00,VWS V14.01,2013-01-20 14:50:00,
2013-01-20 08:52:00,18.3,8.5,30.26,NNW,339,2.0,7.0,65,0.00,,---,0.00,VWS V14.01,2013-01-20 14:52:00,
2013-01-20 08:53:00,18.3,8.5,30.26,NNW,348,1.0,7.0,65,0.00,,---,0.00,VWS V14.01,2013-01-20 14:53:00,
2013-01-20 08:55:00,18.4,8.3,30.26,NW,325,0.0,7.0,64,0.00,,---,0.00,VWS V14.01,2013-01-20 14:55:00,
2013-01-20 08:57:00,18.5,8.7,30.27,NW,317,3.0,7.0,65,0.00,,---,0.00,VWS V14.01,2013-01-20 14:57:00,
2013-01-20 08:58:00,18.6,8.8,30.27,NW,320,4.0,8.0,65,0.00,,---,0.00,VWS V14.01,2013-01-20 14:58:00,
2013-01-20 09:00:00,18.7,8.9,30.27,WNW,294,4.0,8.0,65,0.00,,---,0.00,VWS V14.01,2013-01-20 15:00:00,
2013-01-20 09:02:00,18.8,9.0,30.27,NW,326,4.0,5.0,65,0.00,,---,0.00,VWS V14.01,2013-01-20 15:02:00,
2013-01-20 09:03:00,18.8,8.6,30.27,NW,315,1.0,5.0,64,0.00,,---,0.00,VWS V14.01,2013-01-20 15:03:00,
2013-01-20 09:05:00,18.8,9.0,30.27,North,5,1.0,5.0,65,0.00,,---,0.00,VWS V14.01,2013-01-20 15:05:00,
2013-01-20 09:06:00,18.9,9.1,30.27,North,9,3.0,5.0,65,0.00,,---,0.00,VWS V14.01,2013-01-20 15:06:00,
2013-01-20 09:07:00,18.9,8.8,30.27,WNW,284,3.0,5.0,64,0.00,,---,0.00,VWS V14.01,2013-01-20 15:07:00,
2013-01-20 09:08:00,18.9,8.8,30.27,NW,322,2.0,5.0,64,0.00,,---,0.00,VWS V14.01,2013-01-20 15:08:00,
2013-01-20 09:10:00,18.9,8.8,30.27,NW,324,2.0,5.0,64,0.00,,---,0.00,VWS V14.01,2013-01-20 15:10:00,
2013-01-20 09:11:00,18.9,8.8,30.27,NW,324,1.0,5.0,64,0.00,,---,0.00,VWS V14.01,2013-01-20 15:11:00,
2013-01-20 09:12:00,18.9,8.4,30.27,NW,325,1.0,5.0,63,0.00,,---,0.00,VWS V14.01,2013-01-20 15:12:00,
2013-01-20 09:13:00,18.9,8.8,30.27,NNW,328,0.0,5.0,64,0.00,,---,0.00,VWS V14.01,2013-01-20 15:13:00,
2013-01-20 09:15:00,19.0,8.5,30.27,NNW,327,1.0,5.0,63,0.00,,---,0.00,VWS V14.01,2013-01-20 15:15:00,
2013-01-20 09:16:00,19.1,8.9,30.27,NNW,327,1.0,5.0,64,0.00,,---,0.00,VWS V14.01,2013-01-20 15:16:00,
2013-01-20 09:17:00,19.2,9.0,30.27,NW,324,1.0,5.0,64,0.00,,---,0.00,VWS V14.01,2013-01-20 15:17:00,
2013-01-20 09:18:00,19.4,9.2,30.27,NNW,329,2.0,5.0,64,0.00,,---,0.00,VWS V14.01,2013-01-20 15:18:00,
2013-01-20 09:20:00,19.5,9.3,30.27,WNW,296,0.0,5.0,64,0.00,,---,0.00,VWS V14.01,2013-01-20 15:20:00,
2013-01-20 09:21:00,19.5,9.3,30.27,WNW,296,0.0,5.0,64,0.00,,---,0.00,VWS V14.01,2013-01-20 15:21:00,
2013-01-20 09:22:00,19.6,9.4,30.27,North,355,2.0,5.0,64,0.00,,---,0.00,VWS V14.01,2013-01-20 15:22:00,
2013-01-20 09:23:00,19.5,9.3,30.27,NW,317,1.0,5.0,64,0.00,,---,0.00,VWS V14.01,2013-01-20 15:23:00,
2013-01-20 09:25:00,19.5,9.0,30.27,NW,321,1.0,5.0,63,0.00,,---,0.00,VWS V14.01,2013-01-20 15:25:00,
2013-01-20 09:26:00,19.5,9.3,30.27,NW,321,5.0,5.0,64,0.00,,---,0.00,VWS V14.01,2013-01-20 15:26:00,
2013-01-20 09:27:00,19.5,9.3,30.27,WNW,292,4.0,5.0,64,0.00,,---,0.00,VWS V14.01,2013-01-20 15:27:00,
2013-01-20 09:28:00,19.7,9.9,30.27,WNW,294,4.0,7.0,65,0.00,,---,0.00,VWS V14.01,2013-01-20 15:28:00,
2013-01-20 09:30:00,19.7,9.5,30.27,WNW,292,1.0,7.0,64,0.00,,---,0.00,VWS V14.01,2013-01-20 15:30:00,
2013-01-20 09:31:00,19.7,9.5,30.27,WNW,293,2.0,3.0,64,0.00,,---,0.00,VWS V14.01,2013-01-20 15:31:00,
2013-01-20 09:32:00,19.7,9.5,30.27,WNW,293,2.0,3.0,64,0.00,,---,0.00,VWS V14.01,2013-01-20 15:32:00,
2013-01-20 09:34:00,19.7,9.2,30.27,NW,317,1.0,5.0,63,0.00,,---,0.00,VWS V14.01,2013-01-20 15:34:00,
2013-01-20 09:35:00,19.7,9.2,30.27,NW,319,1.0,5.0,63,0.00,,---,0.00,VWS V14.01,2013-01-20 15:35:00,
2013-01-20 09:36:00,19.7,9.2,30.27,NNW,333,4.0,5.0,63,0.00,,---,0.00,VWS V14.01,2013-01-20 15:36:00,
2013-01-20 09:37:00,19.7,9.2,30.27,NNE,13,4.0,5.0,63,0.00,,---,0.00,VWS V14.01,2013-01-20 15:37:00,
2013-01-20 09:39:00,19.7,9.2,30.27,North,5,3.0,5.0,63,0.00,,---,0.00,VWS V14.01,2013-01-20 15:39:00,
2013-01-20 09:41:00,19.7,9.2,30.27,North,360,2.0,5.0,63,0.00,,---,0.00,VWS V14.01,2013-01-20 15:41:00,
2013-01-20 09:42:00,19.7,9.2,30.27,NNW,346,1.0,5.0,63,0.00,,---,0.00,VWS V14.01,2013-01-20 15:42:00,
2013-01-20 09:44:00,19.8,9.3,30.27,NNW,346,1.0,5.0,63,0.00,,---,0.00,VWS V14.01,2013-01-20 15:44:00,
2013-01-20 09:46:00,19.8,9.6,30.27,WNW,298,4.0,8.0,64,0.00,,---,0.00,VWS V14.01,2013-01-20 15:46:00,
2013-01-20 09:47:00,19.9,9.7,30.27,WNW,292,1.0,8.0,64,0.00,,---,0.00,VWS V14.01,2013-01-20 15:47:00,
2013-01-20 09:49:00,19.9,9.4,30.27,NNW,345,0.0,8.0,63,0.00,,---,0.00,VWS V14.01,2013-01-20 15:49:00,
2013-01-20 09:51:00,20.1,9.5,30.27,NNW,342,2.0,8.0,63,0.00,,---,0.00,VWS V14.01,2013-01-20 15:51:00,
2013-01-20 09:52:00,20.2,9.3,30.28,NNE,28,0.0,8.0,62,0.00,,---,0.00,VWS V14.01,2013-01-20 15:52:00,
2013-01-20 09:54:00,20.3,9.4,30.28,NNW,338,1.0,8.0,62,0.00,,---,0.00,VWS V14.01,2013-01-20 15:54:00,
2013-01-20 09:56:00,20.5,9.6,30.28,NW,325,3.0,8.0,62,0.00,,---,0.00,VWS V14.01,2013-01-20 15:56:00,
2013-01-20 09:57:00,20.6,9.7,30.28,NW,323,2.0,8.0,62,0.00,,---,0.00,VWS V14.01,2013-01-20 15:57:00,
2013-01-20 09:59:00,20.7,9.8,30.28,WNW,300,2.0,8.0,62,0.00,,---,0.00,VWS V14.01,2013-01-20 15:59:00,
2013-01-20 10:01:00,20.9,10.3,30.28,WNW,301,0.0,4.0,63,0.00,,---,0.00,VWS V14.01,2013-01-20 16:01:00,
2013-01-20 10:02:00,20.9,10.3,30.28,WNW,301,0.0,4.0,63,0.00,,---,0.00,VWS V14.01,2013-01-20 16:02:00,
2013-01-20 10:04:00,20.9,10.3,30.28,WNW,288,3.0,6.0,63,0.00,,---,0.00,VWS V14.01,2013-01-20 16:04:00,
2013-01-20 10:06:00,20.9,9.9,30.28,WNW,290,4.0,6.0,62,0.00,,---,0.00,VWS V14.01,2013-01-20 16:06:00,
2013-01-20 10:07:00,20.9,9.9,30.28,WNW,288,4.0,6.0,62,0.00,,---,0.00,VWS V14.01,2013-01-20 16:07:00,
2013-01-20 10:10:00,21.0,10.0,30.28,NNW,331,1.0,6.0,62,0.00,,---,0.00,VWS V14.01,2013-01-20 16:10:00,
2013-01-20 10:11:00,20.9,9.6,30.28,WNW,287,5.0,6.0,61,0.00,,---,0.00,VWS V14.01,2013-01-20 16:11:00,
2013-01-20 10:12:00,21.1,9.8,30.28,NNW,344,1.0,6.0,61,0.00,,---,0.00,VWS V14.01,2013-01-20 16:12:00,
2013-01-20 10:15:00,21.4,10.1,30.28,North,355,4.0,6.0,61,0.00,,---,0.00,VWS V14.01,2013-01-20 16:15:00,
2013-01-20 10:16:00,21.5,9.8,30.28,North,5,3.0,6.0,60,0.00,,---,0.00,VWS V14.01,2013-01-20 16:16:00,
2013-01-20 10:17:00,21.5,9.8,30.28,North,5,1.0,6.0,60,0.00,,---,0.00,VWS V14.01,2013-01-20 16:17:00,
2013-01-20 10:20:00,21.7,9.6,30.28,North,5,5.0,6.0,59,0.00,,---,0.00,VWS V14.01,2013-01-20 16:20:00,
2013-01-20 10:21:00,21.7,9.6,30.28,North,9,1.0,6.0,59,0.00,,---,0.00,VWS V14.01,2013-01-20 16:21:00,
2013-01-20 10:22:00,21.8,9.7,30.28,NNW,347,1.0,6.0,59,0.00,,---,0.00,VWS V14.01,2013-01-20 16:22:00,
2013-01-20 10:25:00,21.8,9.7,30.28,North,355,0.0,7.0,59,0.00,,---,0.00,VWS V14.01,2013-01-20 16:25:00,
2013-01-20 10:26:00,21.8,10.1,30.28,North,355,0.0,7.0,60,0.00,,---,0.00,VWS V14.01,2013-01-20 16:26:00,
2013-01-20 10:27:00,21.8,10.1,30.28,North,360,1.0,7.0,60,0.00,,---,0.00,VWS V14.01,2013-01-20 16:27:00,
2013-01-20 10:30:00,21.7,10.0,30.28,NW,322,1.0,1.0,60,0.00,,---,0.00,VWS V14.01,2013-01-20 16:30:00,
2013-01-20 10:32:00,21.7,10.0,30.28,NW,322,1.0,1.0,60,0.00,,---,0.00,VWS V14.01,2013-01-20 16:32:00,
2013-01-20 10:35:00,21.7,10.3,30.28,WNW,292,2.0,6.0,61,0.00,,---,0.00,VWS V14.01,2013-01-20 16:35:00,
2013-01-20 10:37:00,21.7,10.3,30.28,NNW,338,2.0,6.0,61,0.00,,---,0.00,VWS V14.01,2013-01-20 16:37:00,
2013-01-20 10:40:00,21.8,11.2,30.28,NNW,338,2.0,6.0,63,0.00,,---,0.00,VWS V14.01,2013-01-20 16:40:00,
2013-01-20 10:42:00,21.8,11.2,30.28,NW,316,0.0,6.0,63,0.00,,---,0.00,VWS V14.01,2013-01-20 16:42:00,
2013-01-20 10:46:00,21.7,11.1,30.27,NW,317,1.0,6.0,63,0.00,,---,0.00,VWS V14.01,2013-01-20 16:46:00,
2013-01-20 10:48:00,21.6,11.0,30.27,WNW,294,3.0,6.0,63,0.00,,---,0.00,VWS V14.01,2013-01-20 16:48:00,
2013-01-20 10:51:00,21.4,10.8,30.27,WNW,295,2.0,6.0,63,0.00,,---,0.00,VWS V14.01,2013-01-20 16:51:00,
2013-01-20 10:53:00,21.3,10.7,30.27,WNW,296,0.0,8.0,63,0.00,,---,0.00,VWS V14.01,2013-01-20 16:53:00,
2013-01-20 10:56:00,21.4,11.1,30.27,NW,306,4.0,8.0,64,0.00,,---,0.00,VWS V14.01,2013-01-20 16:56:00,
2013-01-20 10:58:00,21.5,10.9,30.26,NW,309,0.0,8.0,63,0.00,,---,0.00,VWS V14.01,2013-01-20 16:58:00,
2013-01-20 11:01:00,21.5,10.5,30.26,NW,312,0.0,4.0,62,0.00,,---,0.00,VWS V14.01,2013-01-20 17:01:00,
2013-01-20 11:03:00,21.5,10.5,30.26,NW,307,3.0,5.0,62,0.00,,---,0.00,VWS V14.01,2013-01-20 17:03:00,
2013-01-20 11:06:00,21.6,10.6,30.27,NW,323,1.0,5.0,62,0.00,,---,0.00,VWS V14.01,2013-01-20 17:06:00,
2013-01-20 11:08:00,21.5,10.5,30.27,NW,323,0.0,5.0,62,0.00,,---,0.00,VWS V14.01,2013-01-20 17:08:00,
2013-01-20 11:12:00,21.5,10.5,30.26,NNW,329,0.0,5.0,62,0.00,,---,0.00,VWS V14.01,2013-01-20 17:12:00,
2013-01-20 11:13:00,21.6,10.6,30.26,WNW,300,1.0,5.0,62,0.00,,---,0.00,VWS V14.01,2013-01-20 17:13:00,
2013-01-20 11:14:00,21.6,10.6,30.27,WNW,285,3.0,5.0,62,0.00,,---,0.00,VWS V14.01,2013-01-20 17:14:00,
2013-01-20 11:17:00,21.6,10.2,30.27,NNW,342,2.0,6.0,61,0.00,,---,0.00,VWS V14.01,2013-01-20 17:17:00,
2013-01-20 11:18:00,21.6,10.2,30.27,NNW,341,0.0,6.0,61,0.00,,---,0.00,VWS V14.01,2013-01-20 17:18:00,
2013-01-20 11:19:00,21.6,10.2,30.27,NNW,340,1.0,6.0,61,0.00,,---,0.00,VWS V14.01,2013-01-20 17:19:00,
2013-01-20 11:22:00,21.6,10.2,30.27,WNW,302,2.0,6.0,61,0.00,,---,0.00,VWS V14.01,2013-01-20 17:22:00,
2013-01-20 11:23:00,21.7,10.0,30.27,West,273,4.0,7.0,60,0.00,,---,0.00,VWS V14.01,2013-01-20 17:23:00,
2013-01-20 11:24:00,21.6,9.9,30.27,WNW,299,3.0,7.0,60,0.00,,---,0.00,VWS V14.01,2013-01-20 17:24:00,
2013-01-20 11:27:00,21.6,9.9,30.27,WNW,286,4.0,7.0,60,0.00,,---,0.00,VWS V14.01,2013-01-20 17:27:00,
2013-01-20 11:28:00,21.6,9.5,30.27,WNW,295,1.0,7.0,59,0.00,,---,0.00,VWS V14.01,2013-01-20 17:28:00,
2013-01-20 11:29:00,21.6,9.9,30.27,WNW,302,1.0,7.0,60,0.00,,---,0.00,VWS V14.01,2013-01-20 17:29:00,
2013-01-20 11:32:00,21.9,10.5,30.26,WNW,303,0.0,1.0,61,0.00,,---,0.00,VWS V14.01,2013-01-20 17:32:00,
2013-01-20 11:33:00,22.0,10.6,30.26,WNW,291,3.0,9.0,61,0.00,,---,0.00,VWS V14.01,2013-01-20 17:33:00,
2013-01-20 11:34:00,22.1,10.4,30.26,WNW,292,1.0,9.0,60,0.00,,---,0.00,VWS V14.01,2013-01-20 17:34:00,
2013-01-20 11:37:00,22.2,10.1,30.25,NNW,341,2.0,9.0,59,0.00,,---,0.00,VWS V14.01,2013-01-20 17:37:00,
2013-01-20 11:38:00,22.1,9.6,30.25,NW,321,0.0,9.0,58,0.00,,---,0.00,VWS V14.01,2013-01-20 17:38:00,
2013-01-20 11:39:00,22.1,9.2,30.25,NW,323,3.0,9.0,57,0.00,,---,0.00,VWS V14.01,2013-01-20 17:39:00,
2013-01-20 11:42:00,21.9,9.0,30.25,NNW,336,1.0,9.0,57,0.00,,---,0.00,VWS V14.01,2013-01-20 17:42:00,
2013-01-20 11:43:00,21.9,9.0,30.26,NNW,347,2.0,9.0,57,0.00,,---,0.00,VWS V14.01,2013-01-20 17:43:00,
2013-01-20 11:44:00,22.0,9.1,30.26,NNW,327,1.0,9.0,57,0.00,,---,0.00,VWS V14.01,2013-01-20 17:44:00,
2013-01-20 11:47:00,22.0,9.1,30.25,NNW,340,2.0,9.0,57,0.00,,---,0.00,VWS V14.01,2013-01-20 17:47:00,
2013-01-20 11:48:00,22.0,9.1,30.25,WNW,289,4.0,9.0,57,0.00,,---,0.00,VWS V14.01,2013-01-20 17:48:00,
2013-01-20 11:49:00,22.0,9.1,30.25,WNW,289,4.0,9.0,57,0.00,,---,0.00,VWS V14.01,2013-01-20 17:49:00,
2013-01-20 11:52:00,22.1,9.2,30.25,NNW,347,1.0,9.0,57,0.00,,---,0.00,VWS V14.01,2013-01-20 17:52:00,
2013-01-20 11:54:00,22.1,9.2,30.25,NNW,337,3.0,9.0,57,0.00,,---,0.00,VWS V14.01,2013-01-20 17:54:00,
2013-01-20 11:55:00,22.2,9.7,30.25,NW,313,2.0,9.0,58,0.00,,---,0.00,VWS V14.01,2013-01-20 17:55:00,
2013-01-20 11:57:00,22.1,9.2,30.25,NNW,332,1.0,9.0,57,0.00,,---,0.00,VWS V14.01,2013-01-20 17:57:00,
2013-01-20 11:59:00,22.1,9.2,30.25,WNW,303,1.0,9.0,57,0.00,,---,0.00,VWS V14.01,2013-01-20 17:59:00,
2013-01-20 12:00:00,22.1,9.2,30.25,North,355,5.0,9.0,57,0.00,,---,0.00,VWS V14.01,2013-01-20 18:00:00,
2013-01-20 12:02:00,22.2,9.7,30.25,NNW,342,1.0,4.0,58,0.00,,---,0.00,VWS V14.01,2013-01-20 18:02:00,
2013-01-20 12:04:00,22.4,9.9,30.25,WNW,295,0.0,4.0,58,0.00,,---,0.00,VWS V14.01,2013-01-20 18:04:00,
2013-01-20 12:05:00,22.5,10.0,30.25,WNW,300,10.0,10.0,58,0.00,,---,0.00,VWS V14.01,2013-01-20 18:05:00,
2013-01-20 12:07:00,22.6,10.1,30.25,NW,306,2.0,10.0,58,0.00,,---,0.00,VWS V14.01,2013-01-20 18:07:00,
2013-01-20 12:09:00,22.6,9.7,30.25,NW,311,5.0,10.0,57,0.00,,---,0.00,VWS V14.01,2013-01-20 18:09:00,
2013-01-20 12:10:00,22.7,9.8,30.24,NW,325,2.0,10.0,57,0.00,,---,0.00,VWS V14.01,2013-01-20 18:10:00,
2013-01-20 12:12:00,22.6,9.3,30.24,NNW,346,2.0,10.0,56,0.00,,---,0.00,VWS V14.01,2013-01-20 18:12:00,
2013-01-20 12:14:00,22.8,10.2,30.24,NW,323,3.0,10.0,58,0.00,,---,0.00,VWS V14.01,2013-01-20 18:14:00,
2013-01-20 12:15:00,22.9,10.0,30.24,WNW,298,3.0,10.0,57,0.00,,---,0.00,VWS V14.01,2013-01-20 18:15:00,
2013-01-20 12:18:00,22.9,10.0,30.24,North,360,3.0,10.0,57,0.00,,---,0.00,VWS V14.01,2013-01-20 18:18:00,
2013-01-20 12:19:00,23.0,10.1,30.23,North,355,0.0,10.0,57,0.00,,---,0.00,VWS V14.01,2013-01-20 18:19:00,
2013-01-20 12:20:00,23.1,10.1,30.23,North,360,1.0,10.0,57,0.00,,---,0.00,VWS V14.01,2013-01-20 18:20:00,
2013-01-20 12:23:00,23.1,9.8,30.23,NW,312,1.0,10.0,56,0.00,,---,0.00,VWS V14.01,2013-01-20 18:23:00,
2013-01-20 12:24:00,23.1,9.8,30.23,WNW,302,3.0,10.0,56,0.00,,---,0.00,VWS V14.01,2013-01-20 18:24:00,
2013-01-20 12:25:00,23.1,9.8,30.23,NW,313,4.0,10.0,56,0.00,,---,0.00,VWS V14.01,2013-01-20 18:25:00,
2013-01-20 12:28:00,22.7,9.4,30.24,WNW,292,2.0,10.0,56,0.00,,---,0.00,VWS V14.01,2013-01-20 18:28:00,
2013-01-20 12:29:00,22.7,9.4,30.24,WNW,292,0.0,10.0,56,0.00,,---,0.00,VWS V14.01,2013-01-20 18:29:00,
2013-01-20 12:30:00,22.7,9.8,30.24,WNW,292,1.0,10.0,57,0.00,,---,0.00,VWS V14.01,2013-01-20 18:30:00,
2013-01-20 12:31:00,22.7,9.8,30.24,WNW,293,1.0,1.0,57,0.00,,---,0.00,VWS V14.01,2013-01-20 18:31:00,
2013-01-20 12:33:00,22.8,9.9,30.25,NW,323,2.0,7.0,57,0.00,,---,0.00,VWS V14.01,2013-01-20 18:33:00,
2013-01-20 12:34:00,22.8,9.9,30.24,North,355,3.0,7.0,57,0.00,,---,0.00,VWS V14.01,2013-01-20 18:34:00,
2013-01-20 12:35:00,22.9,10.3,30.24,NW,318,4.0,7.0,58,0.00,,---,0.00,VWS V14.01,2013-01-20 18:35:00,
2013-01-20 12:36:00,22.9,10.3,30.24,NW,324,2.0,7.0,58,0.00,,---,0.00,VWS V14.01,2013-01-20 18:36:00,
2013-01-20 12:38:00,22.9,10.0,30.24,NW,325,12.0,12.0,57,0.00,,---,0.00,VWS V14.01,2013-01-20 18:38:00,
2013-01-20 12:39:00,22.9,10.0,30.24,NW,326,7.0,12.0,57,0.00,,---,0.00,VWS V14.01,2013-01-20 18:39:00,
2013-01-20 12:40:00,22.9,10.0,30.24,NW,319,4.0,12.0,57,0.00,,---,0.00,VWS V14.01,2013-01-20 18:40:00,
2013-01-20 12:41:00,22.9,10.0,30.24,NNW,333,6.0,12.0,57,0.00,,---,0.00,VWS V14.01,2013-01-20 18:41:00,
2013-01-20 12:43:00,22.8,9.9,30.24,North,350,5.0,12.0,57,0.00,,---,0.00,VWS V14.01,2013-01-20 18:43:00,
2013-01-20 12:44:00,22.8,9.9,30.25,WNW,294,3.0,12.0,57,0.00,,---,0.00,VWS V14.01,2013-01-20 18:44:00,
2013-01-20 12:45:00,22.8,9.9,30.25,WNW,293,11.0,12.0,57,0.00,,---,0.00,VWS V14.01,2013-01-20 18:45:00,
2013-01-20 12:46:00,22.8,9.9,30.25,WNW,293,11.0,12.0,57,0.00,,---,0.00,VWS V14.01,2013-01-20 18:46:00,
2013-01-20 12:48:00,22.8,9.9,30.25,WNW,293,11.0,12.0,57,0.00,,---,0.00,VWS V14.01,2013-01-20 18:48:00,
2013-01-20 12:49:00,23.1,10.9,30.25,NW,313,3.0,12.0,59,0.00,,---,0.00,VWS V14.01,2013-01-20 18:49:00,
2013-01-20 12:51:00,23.3,11.5,30.25,WNW,300,5.0,12.0,60,0.00,,---,0.00,VWS V14.01,2013-01-20 18:51:00,
2013-01-20 12:53:00,23.4,11.6,30.25,NNW,330,4.0,12.0,60,0.00,,---,0.00,VWS V14.01,2013-01-20 18:53:00,
2013-01-20 12:55:00,23.4,11.2,30.25,NW,319,4.0,12.0,59,0.00,,---,0.00,VWS V14.01,2013-01-20 18:55:00,
2013-01-20 12:56:00,23.3,11.1,30.25,NW,324,6.0,12.0,59,0.00,,---,0.00,VWS V14.01,2013-01-20 18:56:00,
2013-01-20 12:58:00,23.0,10.4,30.25,WNW,296,5.0,12.0,58,0.00,,---,0.00,VWS V14.01,2013-01-20 18:58:00,
2013-01-20 13:00:00,22.8,10.6,30.25,WNW,287,3.0,12.0,59,0.00,,---,0.00,VWS V14.01,2013-01-20 19:00:00,
2013-01-20 13:01:00,22.8,10.6,30.25,NW,318,4.0,10.0,59,0.00,,---,0.00,VWS V14.01,2013-01-20 19:01:00,
2013-01-20 13:03:00,22.7,10.5,30.25,NW,313,1.0,10.0,59,0.00,,---,0.00,VWS V14.01,2013-01-20 19:03:00,
2013-01-20 13:05:00,22.8,11.0,30.25,NW,317,4.0,10.0,60,0.00,,---,0.00,VWS V14.01,2013-01-20 19:05:00,
2013-01-20 13:06:00,22.8,10.6,30.25,WNW,301,2.0,10.0,59,0.00,,---,0.00,VWS V14.01,2013-01-20 19:06:00,
2013-01-20 13:09:00,22.9,11.1,30.25,WNW,298,2.0,10.0,60,0.00,,---,0.00,VWS V14.01,2013-01-20 19:09:00,
2013-01-20 13:10:00,23.0,11.2,30.24,WNW,290,3.0,10.0,60,0.00,,---,0.00,VWS V14.01,2013-01-20 19:10:00,
2013-01-20 13:11:00,23.1,11.3,30.24,NW,317,5.0,10.0,60,0.00,,---,0.00,VWS V14.01,2013-01-20 19:11:00,
2013-01-20 13:12:00,23.1,11.3,30.24,NW,309,4.0,10.0,60,0.00,,---,0.00,VWS V14.01,2013-01-20 19:12:00,
2013-01-20 13:14:00,23.0,11.2,30.24,WNW,297,3.0,10.0,60,0.00,,---,0.00,VWS V14.01,2013-01-20 19:14:00,
2013-01-20 13:15:00,23.0,11.2,30.24,WNW,302,4.0,10.0,60,0.00,,---,0.00,VWS V14.01,2013-01-20 19:15:00,
2013-01-20 13:16:00,22.9,10.7,30.25,NW,319,0.0,10.0,59,0.00,,---,0.00,VWS V14.01,2013-01-20 19:16:00,
2013-01-20 13:17:00,22.9,10.7,30.25,NW,320,2.0,10.0,59,0.00,,---,0.00,VWS V14.01,2013-01-20 19:17:00,
2013-01-20 13:19:00,22.7,10.5,30.24,NW,326,4.0,10.0,59,0.00,,---,0.00,VWS V14.01,2013-01-20 19:19:00,
2013-01-20 13:20:00,22.7,10.5,30.24,WNW,283,5.0,10.0,59,0.00,,---,0.00,VWS V14.01,2013-01-20 19:20:00,
2013-01-20 13:22:00,22.7,10.9,30.24,NW,313,3.0,10.0,60,0.00,,---,0.00,VWS V14.01,2013-01-20 19:22:00,
2013-01-20 13:24:00,22.6,10.8,30.24,NW,310,0.0,10.0,60,0.00,,---,0.00,VWS V14.01,2013-01-20 19:24:00,
2013-01-20 13:25:00,22.6,11.2,30.24,NNW,327,3.0,10.0,61,0.00,,---,0.00,VWS V14.01,2013-01-20 19:25:00,
2013-01-20 13:27:00,22.7,11.3,30.24,NNW,343,0.0,10.0,61,0.00,,---,0.00,VWS V14.01,2013-01-20 19:27:00,
2013-01-20 13:29:00,22.7,11.3,30.24,NNW,343,0.0,10.0,61,0.00,,---,0.00,VWS V14.01,2013-01-20 19:29:00,
2013-01-20 13:30:00,22.7,11.3,30.24,NNW,343,0.0,10.0,61,0.00,,---,0.00,VWS V14.01,2013-01-20 19:30:00,
2013-01-20 13:32:00,22.7,11.3,30.24,NW,309,1.0,3.0,61,0.00,,---,0.00,VWS V14.01,2013-01-20 19:32:00,
2013-01-20 13:34:00,22.7,11.6,30.24,NW,321,1.0,3.0,62,0.00,,---,0.00,VWS V14.01,2013-01-20 19:34:00,
2013-01-20 13:35:00,22.8,11.8,30.24,NW,313,6.0,7.0,62,0.00,,---,0.00,VWS V14.01,2013-01-20 19:35:00,
2013-01-20 13:37:00,22.9,11.5,30.25,NW,313,2.0,7.0,61,0.00,,---,0.00,VWS V14.01,2013-01-20 19:37:00,
2013-01-20 13:39:00,22.9,11.5,30.25,WNW,301,2.0,7.0,61,0.00,,---,0.00,VWS V14.01,2013-01-20 19:39:00,
2013-01-20 13:40:00,22.8,11.0,30.25,NNW,339,3.0,7.0,60,0.00,,---,0.00,VWS V14.01,2013-01-20 19:40:00,
2013-01-20 13:42:00,22.9,11.5,30.25,NW,325,2.0,7.0,61,0.00,,---,0.00,VWS V14.01,2013-01-20 19:42:00,
2013-01-20 13:44:00,22.8,11.0,30.25,WNW,288,4.0,7.0,60,0.00,,---,0.00,VWS V14.01,2013-01-20 19:44:00,
2013-01-20 13:45:00,22.8,11.0,30.25,NW,309,7.0,12.0,60,0.00,,---,0.00,VWS V14.01,2013-01-20 19:45:00,
2013-01-20 13:47:00,22.7,11.3,30.25,WNW,297,4.0,12.0,61,0.00,,---,0.00,VWS V14.01,2013-01-20 19:47:00,
2013-01-20 13:49:00,22.7,11.3,30.25,WNW,292,2.0,12.0,61,0.00,,---,0.00,VWS V14.01,2013-01-20 19:49:00,
2013-01-20 13:50:00,22.6,11.2,30.25,West,278,6.0,12.0,61,0.00,,---,0.00,VWS V14.01,2013-01-20 19:50:00,
2013-01-20 13:52:00,22.6,11.2,30.25,NW,311,4.0,12.0,61,0.00,,---,0.00,VWS V14.01,2013-01-20 19:52:00,
2013-01-20 13:53:00,22.6,11.2,30.25,NW,321,5.0,12.0,61,0.00,,---,0.00,VWS V14.01,2013-01-20 19:53:00,
2013-01-20 13:55:00,22.5,10.7,30.25,NW,317,6.0,12.0,60,0.00,,---,0.00,VWS V14.01,2013-01-20 19:55:00,
2013-01-20 13:56:00,22.5,10.7,30.25,NNW,336,3.0,12.0,60,0.00,,---,0.00,VWS V14.01,2013-01-20 19:56:00,
2013-01-20 13:58:00,22.5,10.7,30.25,NW,311,5.0,12.0,60,0.00,,---,0.00,VWS V14.01,2013-01-20 19:58:00,
2013-01-20 14:00:00,22.6,10.8,30.25,NW,315,1.0,12.0,60,0.00,,---,0.00,VWS V14.01,2013-01-20 20:00:00,
2013-01-20 14:01:00,22.7,11.3,30.25,WNW,300,0.0,4.0,61,0.00,,---,0.00,VWS V14.01,2013-01-20 20:01:00,
2013-01-20 14:03:00,22.8,11.8,30.25,WNW,290,2.0,5.0,62,0.00,,---,0.00,VWS V14.01,2013-01-20 20:03:00,
2013-01-20 14:05:00,22.8,11.4,30.25,WNW,283,8.0,9.0,61,0.00,,---,0.00,VWS V14.01,2013-01-20 20:05:00,
2013-01-20 14:06:00,22.8,11.0,30.25,WNW,295,9.0,9.0,60,0.00,,---,0.00,VWS V14.01,2013-01-20 20:06:00,
2013-01-20 14:08:00,22.8,11.4,30.25,NW,315,4.0,9.0,61,0.00,,---,0.00,VWS V14.01,2013-01-20 20:08:00,
2013-01-20 14:10:00,22.8,11.0,30.25,NNW,327,4.0,9.0,60,0.00,,---,0.00,VWS V14.01,2013-01-20 20:10:00,
2013-01-20 14:11:00,22.8,10.6,30.25,NW,320,2.0,9.0,59,0.00,,---,0.00,VWS V14.01,2013-01-20 20:11:00,
2013-01-20 14:13:00,22.8,10.6,30.25,NNW,342,3.0,9.0,59,0.00,,---,0.00,VWS V14.01,2013-01-20 20:13:00,
2013-01-20 14:15:00,22.8,10.6,30.25,North,360,0.0,9.0,59,0.00,,---,0.00,VWS V14.01,2013-01-20 20:15:00,
2013-01-20 14:16:00,22.8,10.6,30.25,North,5,0.0,9.0,59,0.00,,---,0.00,VWS V14.01,2013-01-20 20:16:00,
2013-01-20 14:18:00,22.8,10.2,30.25,WNW,303,2.0,9.0,58,0.00,,---,0.00,VWS V14.01,2013-01-20 20:18:00,
2013-01-20 14:19:00,22.8,10.2,30.25,NW,304,0.0,9.0,58,0.00,,---,0.00,VWS V14.01,2013-01-20 20:19:00,
2013-01-20 14:20:00,22.8,10.2,30.25,NW,324,2.0,9.0,58,0.00,,---,0.00,VWS V14.01,2013-01-20 20:20:00,
2013-01-20 14:21:00,22.8,10.2,30.25,NNW,333,2.0,9.0,58,0.00,,---,0.00,VWS V14.01,2013-01-20 20:21:00,
2013-01-20 14:23:00,22.8,10.6,30.25,NNW,331,1.0,9.0,59,0.00,,---,0.00,VWS V14.01,2013-01-20 20:23:00,
2013-01-20 14:24:00,22.8,10.6,30.25,NNW,331,1.0,9.0,59,0.00,,---,0.00,VWS V14.01,2013-01-20 20:24:00,
2013-01-20 14:26:00,22.8,10.2,30.25,North,9,0.0,9.0,58,0.00,,---,0.00,VWS V14.01,2013-01-20 20:26:00,
2013-01-20 14:28:00,22.8,10.6,30.25,NW,321,3.0,9.0,59,0.00,,---,0.00,VWS V14.01,2013-01-20 20:28:00,
2013-01-20 14:29:00,22.8,10.6,30.25,North,355,2.0,9.0,59,0.00,,---,0.00,VWS V14.01,2013-01-20 20:29:00,
2013-01-20 14:31:00,22.8,10.2,30.25,NNW,329,1.0,5.0,58,0.00,,---,0.00,VWS V14.01,2013-01-20 20:31:00,
2013-01-20 14:34:00,22.7,10.2,30.25,NW,322,0.0,7.0,58,0.00,,---,0.00,VWS V14.01,2013-01-20 20:34:00,
2013-01-20 14:36:00,22.6,10.1,30.25,NW,310,3.0,7.0,58,0.00,,---,0.00,VWS V14.01,2013-01-20 20:36:00,
2013-01-20 14:39:00,22.5,10.0,30.24,NW,316,2.0,9.0,58,0.00,,---,0.00,VWS V14.01,2013-01-20 20:39:00,
2013-01-20 14:41:00,22.5,10.0,30.25,NW,317,1.0,9.0,58,0.00,,---,0.00,VWS V14.01,2013-01-20 20:41:00,
2013-01-20 14:44:00,22.5,10.4,30.25,NNW,340,0.0,9.0,59,0.00,,---,0.00,VWS V14.01,2013-01-20 20:44:00,
2013-01-20 14:46:00,22.4,9.9,30.25,North,9,3.0,9.0,58,0.00,,---,0.00,VWS V14.01,2013-01-20 20:46:00,
2013-01-20 14:49:00,22.4,9.9,30.25,NW,313,4.0,9.0,58,0.00,,---,0.00,VWS V14.01,2013-01-20 20:49:00,
2013-01-20 14:50:00,22.4,9.9,30.25,NNW,346,6.0,9.0,58,0.00,,---,0.00,VWS V14.01,2013-01-20 20:50:00,
2013-01-20 14:52:00,22.2,8.9,30.25,NW,318,1.0,9.0,56,0.00,,---,0.00,VWS V14.01,2013-01-20 20:52:00,
2013-01-20 14:54:00,22.2,9.3,30.25,NNW,338,0.0,9.0,57,0.00,,---,0.00,VWS V14.01,2013-01-20 20:54:00,
2013-01-20 14:55:00,22.2,9.3,30.25,NNE,28,8.0,9.0,57,0.00,,---,0.00,VWS V14.01,2013-01-20 20:55:00,
2013-01-20 14:57:00,22.3,9.4,30.25,NNW,336,2.0,9.0,57,0.00,,---,0.00,VWS V14.01,2013-01-20 20:57:00,
2013-01-20 14:58:00,22.2,9.3,30.25,NNW,331,3.0,9.0,57,0.00,,---,0.00,VWS V14.01,2013-01-20 20:58:00,
2013-01-20 15:00:00,22.3,9.4,30.25,North,9,2.0,9.0,57,0.00,,---,0.00,VWS V14.01,2013-01-20 21:00:00,
2013-01-20 15:02:00,22.3,9.8,30.25,NW,312,0.0,4.0,58,0.00,,---,0.00,VWS V14.01,2013-01-20 21:02:00,
2013-01-20 15:03:00,22.3,9.8,30.25,NW,313,3.0,4.0,58,0.00,,---,0.00,VWS V14.01,2013-01-20 21:03:00,
2013-01-20 15:05:00,22.3,9.8,30.25,WNW,298,0.0,4.0,58,0.00,,---,0.00,VWS V14.01,2013-01-20 21:05:00,
2013-01-20 15:07:00,22.4,10.3,30.25,North,360,0.0,6.0,59,0.00,,---,0.00,VWS V14.01,2013-01-20 21:07:00,
2013-01-20 15:09:00,22.4,10.3,30.25,NNW,344,2.0,6.0,59,0.00,,---,0.00,VWS V14.01,2013-01-20 21:09:00,
2013-01-20 15:10:00,22.4,10.3,30.25,NW,311,1.0,6.0,59,0.00,,---,0.00,VWS V14.01,2013-01-20 21:10:00,
2013-01-20 15:13:00,22.4,9.9,30.25,NW,323,2.0,6.0,58,0.00,,---,0.00,VWS V14.01,2013-01-20 21:13:00,
2013-01-20 15:14:00,22.4,10.3,30.25,NW,320,2.0,6.0,59,0.00,,---,0.00,VWS V14.01,2013-01-20 21:14:00,
2013-01-20 15:15:00,22.4,9.9,30.25,NW,318,0.0,6.0,58,0.00,,---,0.00,VWS V14.01,2013-01-20 21:15:00,
2013-01-20 15:18:00,22.3,10.2,30.25,NW,313,2.0,6.0,59,0.00,,---,0.00,VWS V14.01,2013-01-20 21:18:00,
2013-01-20 15:19:00,22.3,10.2,30.25,NNW,331,1.0,6.0,59,0.00,,---,0.00,VWS V14.01,2013-01-20 21:19:00,
2013-01-20 15:20:00,22.3,10.2,30.25,West,280,4.0,6.0,59,0.00,,---,0.00,VWS V14.01,2013-01-20 21:20:00,
2013-01-20 15:23:00,22.2,10.1,30.25,NNW,334,3.0,6.0,59,0.00,,---,0.00,VWS V14.01,2013-01-20 21:23:00,
2013-01-20 15:24:00,22.2,10.1,30.25,NNW,348,1.0,6.0,59,0.00,,---,0.00,VWS V14.01,2013-01-20 21:24:00,
2013-01-20 15:25:00,22.2,10.1,30.25,NNE,15,2.0,6.0,59,0.00,,---,0.00,VWS V14.01,2013-01-20 21:25:00,
2013-01-20 15:26:00,22.2,10.1,30.25,NNE,15,0.0,6.0,59,0.00,,---,0.00,VWS V14.01,2013-01-20 21:26:00,
2013-01-20 15:29:00,22.2,10.4,30.25,NNW,333,2.0,6.0,60,0.00,,---,0.00,VWS V14.01,2013-01-20 21:29:00,
2013-01-20 15:30:00,22.2,10.1,30.25,NW,325,3.0,3.0,59,0.00,,---,0.00,VWS V14.01,2013-01-20 21:30:00,
2013-01-20 15:32:00,22.1,10.0,30.25,NNW,338,2.0,5.0,59,0.00,,---,0.00,VWS V14.01,2013-01-20 21:32:00,
2013-01-20 15:34:00,22.0,10.2,30.25,NNW,336,4.0,5.0,60,0.00,,---,0.00,VWS V14.01,2013-01-20 21:34:00,
2013-01-20 15:35:00,21.9,10.2,30.25,WNW,292,2.0,5.0,60,0.00,,---,0.00,VWS V14.01,2013-01-20 21:35:00,
2013-01-20 15:38:00,21.8,10.1,30.25,NW,319,2.0,7.0,60,0.00,,---,0.00,VWS V14.01,2013-01-20 21:38:00,
2013-01-20 15:39:00,21.8,10.1,30.25,NNW,339,5.0,7.0,60,0.00,,---,0.00,VWS V14.01,2013-01-20 21:39:00,
2013-01-20 15:41:00,21.8,10.4,30.25,North,11,3.0,7.0,61,0.00,,---,0.00,VWS V14.01,2013-01-20 21:41:00,
2013-01-20 15:43:00,21.8,10.4,30.25,North,9,3.0,7.0,61,0.00,,---,0.00,VWS V14.01,2013-01-20 21:43:00,
2013-01-20 15:44:00,21.8,10.4,30.25,NW,324,3.0,7.0,61,0.00,,---,0.00,VWS V14.01,2013-01-20 21:44:00,
2013-01-20 15:46:00,21.8,10.8,30.25,North,355,4.0,7.0,62,0.00,,---,0.00,VWS V14.01,2013-01-20 21:46:00,
2013-01-20 15:48:00,21.8,10.8,30.24,North,5,3.0,7.0,62,0.00,,---,0.00,VWS V14.01,2013-01-20 21:48:00,
2013-01-20 15:49:00,21.8,10.8,30.25,North,355,3.0,7.0,62,0.00,,---,0.00,VWS V14.01,2013-01-20 21:49:00,
2013-01-20 15:51:00,21.8,10.8,30.25,NW,320,4.0,7.0,62,0.00,,---,0.00,VWS V14.01,2013-01-20 21:51:00,
2013-01-20 15:53:00,21.7,11.1,30.25,North,355,3.0,7.0,63,0.00,,---,0.00,VWS V14.01,2013-01-20 21:53:00,
2013-01-20 15:54:00,21.6,11.0,30.25,North,11,3.0,7.0,63,0.00,,---,0.00,VWS V14.01,2013-01-20 21:54:00,
2013-01-20 15:55:00,21.6,11.0,30.24,North,9,2.0,7.0,63,0.00,,---,0.00,VWS V14.01,2013-01-20 21:55:00,
2013-01-20 15:56:00,21.5,10.9,30.24,North,360,1.0,7.0,63,0.00,,---,0.00,VWS V14.01,2013-01-20 21:56:00,
2013-01-20 15:58:00,21.4,11.1,30.25,NNW,337,2.0,7.0,64,0.00,,---,0.00,VWS V14.01,2013-01-20 21:58:00,
2013-01-20 15:59:00,21.3,11.0,30.25,NW,321,5.0,7.0,64,0.00,,---,0.00,VWS V14.01,2013-01-20 21:59:00,
2013-01-20 16:00:00,21.3,11.0,30.25,NW,317,1.0,7.0,64,0.00,,---,0.00,VWS V14.01,2013-01-20 22:00:00,
2013-01-20 16:01:00,21.3,11.4,30.24,NW,316,0.0,1.0,65,0.00,,---,0.00,VWS V14.01,2013-01-20 22:01:00,
2013-01-20 16:03:00,21.2,11.6,30.25,NW,323,1.0,7.0,66,0.00,,---,0.00,VWS V14.01,2013-01-20 22:03:00,
2013-01-20 16:04:00,21.2,11.6,30.25,North,355,1.0,7.0,66,0.00,,---,0.00,VWS V14.01,2013-01-20 22:04:00,
2013-01-20 16:05:00,21.1,11.5,30.25,NNW,341,0.0,7.0,66,0.00,,---,0.00,VWS V14.01,2013-01-20 22:05:00,
2013-01-20 16:06:00,21.1,11.9,30.25,North,5,2.0,7.0,67,0.00,,---,0.00,VWS V14.01,2013-01-20 22:06:00,
2013-01-20 16:08:00,21.1,11.9,30.24,North,360,3.0,7.0,67,0.00,,---,0.00,VWS V14.01,2013-01-20 22:08:00,
2013-01-20 16:09:00,21.1,11.9,30.24,North,360,4.0,7.0,67,0.00,,---,0.00,VWS V14.01,2013-01-20 22:09:00,
2013-01-20 16:10:00,21.0,12.1,30.25,NNW,338,1.0,7.0,68,0.00,,---,0.00,VWS V14.01,2013-01-20 22:10:00,
2013-01-20 16:11:00,21.0,12.1,30.24,NNW,344,3.0,7.0,68,0.00,,---,0.00,VWS V14.01,2013-01-20 22:11:00,
2013-01-20 16:14:00,20.9,12.4,30.24,North,355,1.0,7.0,69,0.00,,---,0.00,VWS V14.01,2013-01-20 22:14:00,
2013-01-20 16:15:00,20.9,12.4,30.24,NW,318,0.0,7.0,69,0.00,,---,0.00,VWS V14.01,2013-01-20 22:15:00,
2013-01-20 16:16:00,20.8,12.2,30.24,NW,318,0.0,7.0,69,0.00,,---,0.00,VWS V14.01,2013-01-20 22:16:00,
2013-01-20 16:19:00,20.8,12.2,30.24,NNW,346,1.0,7.0,69,0.00,,---,0.00,VWS V14.01,2013-01-20 22:19:00,
2013-01-20 16:21:00,20.8,12.6,30.25,NNW,342,4.0,7.0,70,0.00,,---,0.00,VWS V14.01,2013-01-20 22:21:00,
2013-01-20 16:24:00,20.6,12.4,30.25,NW,325,3.0,7.0,70,0.00,,---,0.00,VWS V14.01,2013-01-20 22:24:00,
2013-01-20 16:26:00,20.6,12.7,30.25,NNE,33,4.0,7.0,71,0.00,,---,0.00,VWS V14.01,2013-01-20 22:26:00,
2013-01-20 16:29:00,20.6,13.0,30.25,NW,325,2.0,7.0,72,0.00,,---,0.00,VWS V14.01,2013-01-20 22:29:00,
2013-01-20 16:31:00,20.5,12.9,30.25,NW,325,0.0,2.0,72,0.00,,---,0.00,VWS V14.01,2013-01-20 22:31:00,
2013-01-20 16:32:00,20.5,12.9,30.25,North,349,3.0,7.0,72,0.00,,---,0.00,VWS V14.01,2013-01-20 22:32:00,
2013-01-20 16:34:00,20.5,13.2,30.25,NW,325,4.0,7.0,73,0.00,,---,0.00,VWS V14.01,2013-01-20 22:34:00,
2013-01-20 16:36:00,20.5,13.5,30.25,NW,318,2.0,7.0,74,0.00,,---,0.00,VWS V14.01,2013-01-20 22:36:00,
2013-01-20 16:37:00,20.5,13.5,30.25,NNW,346,2.0,7.0,74,0.00,,---,0.00,VWS V14.01,2013-01-20 22:37:00,
2013-01-20 16:39:00,20.4,13.4,30.25,NNW,329,4.0,7.0,74,0.00,,---,0.00,VWS V14.01,2013-01-20 22:39:00,
2013-01-20 16:41:00,20.3,13.0,30.25,NNE,16,1.0,7.0,73,0.00,,---,0.00,VWS V14.01,2013-01-20 22:41:00,
2013-01-20 16:43:00,20.3,13.0,30.25,NW,321,2.0,7.0,73,0.00,,---,0.00,VWS V14.01,2013-01-20 22:43:00,
2013-01-20 16:44:00,20.3,13.4,30.25,NNW,333,0.0,7.0,74,0.00,,---,0.00,VWS V14.01,2013-01-20 22:44:00,
2013-01-20 16:46:00,20.3,13.4,30.25,North,355,4.0,7.0,74,0.00,,---,0.00,VWS V14.01,2013-01-20 22:46:00,
2013-01-20 16:48:00,20.3,13.4,30.25,NNE,17,0.0,7.0,74,0.00,,---,0.00,VWS V14.01,2013-01-20 22:48:00,
2013-01-20 16:49:00,20.3,13.4,30.25,NW,312,2.0,7.0,74,0.00,,---,0.00,VWS V14.01,2013-01-20 22:49:00,
2013-01-20 16:50:00,20.2,13.2,30.25,NW,313,0.0,7.0,74,0.00,,---,0.00,VWS V14.01,2013-01-20 22:50:00,
2013-01-20 16:52:00,20.2,13.2,30.25,NW,326,6.0,7.0,74,0.00,,---,0.00,VWS V14.01,2013-01-20 22:52:00,
2013-01-20 16:53:00,20.2,13.2,30.25,NW,308,4.0,7.0,74,0.00,,---,0.00,VWS V14.01,2013-01-20 22:53:00,
2013-01-20 16:54:00,20.2,13.2,30.25,NW,317,3.0,10.0,74,0.00,,---,0.00,VWS V14.01,2013-01-20 22:54:00,
2013-01-20 16:55:00,20.1,13.2,30.25,NW,315,4.0,10.0,74,0.00,,---,0.00,VWS V14.01,2013-01-20 22:55:00,
2013-01-20 16:57:00,20.0,13.1,30.25,NW,311,2.0,11.0,74,0.00,,---,0.00,VWS V14.01,2013-01-20 22:57:00,
2013-01-20 16:58:00,20.0,13.4,30.25,WNW,292,1.0,11.0,75,0.00,,---,0.00,VWS V14.01,2013-01-20 22:58:00,
2013-01-20 16:59:00,20.0,13.1,30.25,NNW,331,3.0,11.0,74,0.00,,---,0.00,VWS V14.01,2013-01-20 22:59:00,
2013-01-20 17:00:00,20.0,13.1,30.25,NW,323,3.0,11.0,74,0.00,,---,0.00,VWS V14.01,2013-01-20 23:00:00,
2013-01-20 17:02:00,19.9,13.0,30.25,NNW,327,3.0,5.0,74,0.00,,---,0.00,VWS V14.01,2013-01-20 23:02:00,
2013-01-20 17:03:00,19.9,13.0,30.25,NW,313,4.0,5.0,74,0.00,,---,0.00,VWS V14.01,2013-01-20 23:03:00,
2013-01-20 17:04:00,19.8,12.9,30.25,NW,318,4.0,6.0,74,0.00,,---,0.00,VWS V14.01,2013-01-20 23:04:00,
2013-01-20 17:05:00,19.8,12.9,30.25,NW,313,3.0,6.0,74,0.00,,---,0.00,VWS V14.01,2013-01-20 23:05:00,
2013-01-20 17:08:00,19.8,12.9,30.25,NW,320,5.0,6.0,74,0.00,,---,0.00,VWS V14.01,2013-01-20 23:08:00,
2013-01-20 17:09:00,19.7,12.8,30.25,NNW,331,9.0,9.0,74,0.00,,---,0.00,VWS V14.01,2013-01-20 23:09:00,
2013-01-20 17:10:00,19.7,12.8,30.25,WNW,302,2.0,9.0,74,0.00,,---,0.00,VWS V14.01,2013-01-20 23:10:00,
2013-01-20 17:13:00,19.7,12.8,30.25,NNW,329,3.0,9.0,74,0.00,,---,0.00,VWS V14.01,2013-01-20 23:13:00,
2013-01-20 17:14:00,19.7,12.8,30.25,NW,304,5.0,9.0,74,0.00,,---,0.00,VWS V14.01,2013-01-20 23:14:00,
2013-01-20 17:15:00,19.7,12.8,30.25,NNW,339,2.0,9.0,74,0.00,,---,0.00,VWS V14.01,2013-01-20 23:15:00,
2013-01-20 17:18:00,19.7,12.5,30.25,North,9,0.0,9.0,73,0.00,,---,0.00,VWS V14.01,2013-01-20 23:18:00,
2013-01-20 17:19:00,19.7,12.5,30.25,NW,311,4.0,9.0,73,0.00,,---,0.00,VWS V14.01,2013-01-20 23:19:00,
2013-01-20 17:20:00,19.7,12.5,30.25,NW,311,1.0,9.0,73,0.00,,---,0.00,VWS V14.01,2013-01-20 23:20:00,
2013-01-20 17:23:00,19.7,12.5,30.25,NNW,330,2.0,9.0,73,0.00,,---,0.00,VWS V14.01,2013-01-20 23:23:00,
2013-01-20 17:24:00,19.7,12.5,30.25,WNW,282,5.0,9.0,73,0.00,,---,0.00,VWS V14.01,2013-01-20 23:24:00,
2013-01-20 17:25:00,19.7,12.5,30.25,NW,315,5.0,9.0,73,0.00,,---,0.00,VWS V14.01,2013-01-20 23:25:00,
2013-01-20 17:28:00,19.7,12.5,30.25,NW,321,1.0,9.0,73,0.00,,---,0.00,VWS V14.01,2013-01-20 23:28:00,
2013-01-20 17:29:00,19.7,12.5,30.25,NW,313,2.0,9.0,73,0.00,,---,0.00,VWS V14.01,2013-01-20 23:29:00,
2013-01-20 17:30:00,19.7,12.5,30.25,NW,321,3.0,9.0,73,0.00,,---,0.00,VWS V14.01,2013-01-20 23:30:00,
2013-01-20 17:33:00,19.7,12.5,30.25,NNW,346,3.0,6.0,73,0.00,,---,0.00,VWS V14.01,2013-01-20 23:33:00,
2013-01-20 17:34:00,19.7,12.5,30.25,NNW,337,3.0,9.0,73,0.00,,---,0.00,VWS V14.01,2013-01-20 23:34:00,
2013-01-20 17:35:00,19.7,12.5,30.25,NW,326,5.0,9.0,73,0.00,,---,0.00,VWS V14.01,2013-01-20 23:35:00,
2013-01-20 17:36:00,19.7,12.5,30.25,NW,326,5.0,9.0,73,0.00,,---,0.00,VWS V14.01,2013-01-20 23:36:00,
2013-01-20 17:38:00,19.7,12.5,30.25,NW,326,5.0,9.0,73,0.00,,---,0.00,VWS V14.01,2013-01-20 23:38:00,
2013-01-20 17:39:00,19.7,12.5,30.25,NW,326,5.0,9.0,73,0.00,,---,0.00,VWS V14.01,2013-01-20 23:39:00,
2013-01-20 17:40:00,19.7,12.5,30.25,NW,326,5.0,9.0,73,0.00,,---,0.00,VWS V14.01,2013-01-20 23:40:00,
2013-01-20 17:41:00,19.7,12.5,30.25,NW,319,2.0,9.0,73,0.00,,---,0.00,VWS V14.01,2013-01-20 23:41:00,
2013-01-20 17:43:00,19.7,12.5,30.25,NW,305,2.0,9.0,73,0.00,,---,0.00,VWS V14.01,2013-01-20 23:43:00,
2013-01-20 17:44:00,19.7,12.1,30.25,North,360,4.0,9.0,72,0.00,,---,0.00,VWS V14.01,2013-01-20 23:44:00,
2013-01-20 17:45:00,19.7,12.1,30.26,NNW,329,2.0,9.0,72,0.00,,---,0.00,VWS V14.01,2013-01-20 23:45:00,
2013-01-20 17:46:00,19.7,12.1,30.26,NNW,330,3.0,9.0,72,0.00,,---,0.00,VWS V14.01,2013-01-20 23:46:00,
2013-01-20 17:48:00,19.7,12.1,30.25,NNW,333,2.0,9.0,72,0.00,,---,0.00,VWS V14.01,2013-01-20 23:48:00,
2013-01-20 17:49:00,19.7,12.1,30.25,WNW,300,5.0,9.0,72,0.00,,---,0.00,VWS V14.01,2013-01-20 23:49:00,
2013-01-20 17:51:00,19.7,12.5,30.25,NW,313,3.0,9.0,73,0.00,,---,0.00,VWS V14.01,2013-01-20 23:51:00,
2013-01-20 17:53:00,19.7,12.5,30.25,NW,320,4.0,9.0,73,0.00,,---,0.00,VWS V14.01,2013-01-20 23:53:00,
2013-01-20 17:54:00,19.7,12.5,30.25,NW,325,2.0,9.0,73,0.00,,---,0.00,VWS V14.01,2013-01-20 23:54:00,
2013-01-20 17:56:00,19.7,12.5,30.25,NW,326,3.0,9.0,73,0.00,,---,0.00,VWS V14.01,2013-01-20 23:56:00,
2013-01-20 17:58:00,19.7,12.5,30.26,WNW,298,3.0,9.0,73,0.00,,---,0.00,VWS V14.01,2013-01-20 23:58:00,
2013-01-20 17:59:00,19.7,12.5,30.25,WNW,296,1.0,9.0,73,0.00,,---,0.00,VWS V14.01,2013-01-20 23:59:00,
2013-01-20 18:01:00,19.7,12.5,30.26,North,355,2.0,4.0,73,0.00,,---,0.00,VWS V14.01,2013-01-21 00:01:00,
2013-01-20 18:03:00,19.7,12.5,30.25,NNW,339,3.0,6.0,73,0.00,,---,0.00,VWS V14.01,2013-01-21 00:03:00,
2013-01-20 18:04:00,19.7,12.5,30.25,NW,311,3.0,8.0,73,0.00,,---,0.00,VWS V14.01,2013-01-21 00:04:00,
2013-01-20 18:06:00,19.7,12.5,30.25,NNE,12,2.0,8.0,73,0.00,,---,0.00,VWS V14.01,2013-01-21 00:06:00,
2013-01-20 18:08:00,19.7,12.5,30.25,NNW,332,4.0,8.0,73,0.00,,---,0.00,VWS V14.01,2013-01-21 00:08:00,
2013-01-20 18:10:00,19.7,12.5,30.25,NW,304,1.0,8.0,73,0.00,,---,0.00,VWS V14.01,2013-01-21 00:10:00,
2013-01-20 18:11:00,19.7,12.5,30.25,WNW,300,4.0,8.0,73,0.00,,---,0.00,VWS V14.01,2013-01-21 00:11:00,
2013-01-20 18:14:00,19.7,12.5,30.25,NNW,331,5.0,8.0,73,0.00,,---,0.00,VWS V14.01,2013-01-21 00:14:00,
2013-01-20 18:15:00,19.7,12.5,30.25,NW,304,2.0,8.0,73,0.00,,---,0.00,VWS V14.01,2013-01-21 00:15:00,
2013-01-20 18:16:00,19.6,12.4,30.25,NW,304,0.0,8.0,73,0.00,,---,0.00,VWS V14.01,2013-01-21 00:16:00,
2013-01-20 18:17:00,19.6,12.4,30.25,NNW,331,3.0,8.0,73,0.00,,---,0.00,VWS V14.01,2013-01-21 00:17:00,
2013-01-20 18:19:00,19.5,12.3,30.26,NW,319,5.0,8.0,73,0.00,,---,0.00,VWS V14.01,2013-01-21 00:19:00,
2013-01-20 18:20:00,19.5,12.3,30.26,NW,321,1.0,8.0,73,0.00,,---,0.00,VWS V14.01,2013-01-21 00:20:00,
2013-01-20 18:21:00,19.6,12.4,30.26,WNW,287,4.0,8.0,73,0.00,,---,0.00,VWS V14.01,2013-01-21 00:21:00,
2013-01-20 18:22:00,19.6,12.4,30.26,NW,322,5.0,9.0,73,0.00,,---,0.00,VWS V14.01,2013-01-21 00:22:00,
2013-01-20 18:24:00,19.7,12.5,30.26,NW,304,3.0,9.0,73,0.00,,---,0.00,VWS V14.01,2013-01-21 00:24:00,
2013-01-20 18:25:00,19.6,12.4,30.25,NW,326,3.0,10.0,73,0.00,,---,0.00,VWS V14.01,2013-01-21 00:25:00,
2013-01-20 18:26:00,19.6,12.4,30.26,NW,317,5.0,10.0,73,0.00,,---,0.00,VWS V14.01,2013-01-21 00:26:00,
2013-01-20 18:27:00,19.6,12.4,30.26,WNW,299,3.0,10.0,73,0.00,,---,0.00,VWS V14.01,2013-01-21 00:27:00,
2013-01-20 18:29:00,19.5,12.3,30.26,West,279,10.0,10.0,73,0.00,,---,0.00,VWS V14.01,2013-01-21 00:29:00,
2013-01-20 18:31:00,19.6,12.4,30.26,WNW,302,2.0,4.0,73,0.00,,---,0.00,VWS V14.01,2013-01-21 00:31:00,
2013-01-20 18:32:00,19.5,12.3,30.26,NW,315,4.0,5.0,73,0.00,,---,0.00,VWS V14.01,2013-01-21 00:32:00,
2013-01-20 18:33:00,19.5,12.3,30.26,NNW,341,4.0,5.0,73,0.00,,---,0.00,VWS V14.01,2013-01-21 00:33:00,
2013-01-20 18:34:00,19.5,12.3,30.26,NW,321,3.0,6.0,73,0.00,,---,0.00,VWS V14.01,2013-01-21 00:34:00,
2013-01-20 18:36:00,19.5,12.3,30.26,NW,315,5.0,10.0,73,0.00,,---,0.00,VWS V14.01,2013-01-21 00:36:00,
2013-01-20 18:37:00,19.4,12.2,30.26,NNW,327,4.0,10.0,73,0.00,,---,0.00,VWS V14.01,2013-01-21 00:37:00,
2013-01-20 18:38:00,19.4,12.2,30.26,NW,305,2.0,10.0,73,0.00,,---,0.00,VWS V14.01,2013-01-21 00:38:00,
2013-01-20 18:39:00,19.4,12.5,30.26,NW,326,3.0,10.0,74,0.00,,---,0.00,VWS V14.01,2013-01-21 00:39:00,
2013-01-20 18:41:00,19.4,12.5,30.26,NW,306,4.0,10.0,74,0.00,,---,0.00,VWS V14.01,2013-01-21 00:41:00,
2013-01-20 18:43:00,19.4,14.5,30.26,WNW,301,5.0,10.0,81,0.00,,---,0.00,VWS V14.01,2013-01-21 00:43:00,
2013-01-20 18:44:00,19.3,12.4,30.26,NW,305,2.0,10.0,74,0.00,,---,0.00,VWS V14.01,2013-01-21 00:44:00,
2013-01-20 18:46:00,19.3,12.4,30.26,NW,304,3.0,10.0,74,0.00,,---,0.00,VWS V14.01,2013-01-21 00:46:00,
2013-01-20 18:48:00,19.3,12.4,30.26,NW,313,4.0,10.0,74,0.00,,---,0.00,VWS V14.01,2013-01-21 00:48:00,
2013-01-20 18:49:00,19.3,12.7,30.26,WNW,296,3.0,10.0,75,0.00,,---,0.00,VWS V14.01,2013-01-21 00:49:00,
2013-01-20 18:51:00,19.3,12.7,30.26,NW,305,4.0,10.0,75,0.00,,---,0.00,VWS V14.01,2013-01-21 00:51:00,
2013-01-20 18:53:00,19.3,12.7,30.26,NW,326,4.0,10.0,75,0.00,,---,0.00,VWS V14.01,2013-01-21 00:53:00,
2013-01-20 18:54:00,19.3,12.7,30.26,NNW,330,1.0,10.0,75,0.00,,---,0.00,VWS V14.01,2013-01-21 00:54:00,
2013-01-20 18:56:00,19.4,13.1,30.26,NW,309,2.0,10.0,76,0.00,,---,0.00,VWS V14.01,2013-01-21 00:56:00,
2013-01-20 18:58:00,19.3,13.0,30.26,NNW,339,3.0,10.0,76,0.00,,---,0.00,VWS V14.01,2013-01-21 00:58:00,
2013-01-20 18:59:00,19.3,13.0,30.26,NNW,327,3.0,10.0,76,0.00,,---,0.00,VWS V14.01,2013-01-21 00:59:00,
2013-01-20 19:01:00,19.3,13.0,30.26,WNW,302,3.0,5.0,76,0.00,,---,0.00,VWS V14.01,2013-01-21 01:01:00,
2013-01-20 19:03:00,19.3,13.0,30.26,NW,321,4.0,5.0,76,0.00,,---,0.00,VWS V14.01,2013-01-21 01:03:00,
2013-01-20 19:04:00,19.3,13.0,30.26,NW,323,3.0,5.0,76,0.00,,---,0.00,VWS V14.01,2013-01-21 01:04:00,
2013-01-20 19:06:00,19.3,13.3,30.26,NW,316,3.0,5.0,77,0.00,,---,0.00,VWS V14.01,2013-01-21 01:06:00,
2013-01-20 19:08:00,19.3,13.3,30.26,NW,310,3.0,5.0,77,0.00,,---,0.00,VWS V14.01,2013-01-21 01:08:00,
2013-01-20 19:09:00,19.3,13.3,30.26,WNW,297,4.0,5.0,77,0.00,,---,0.00,VWS V14.01,2013-01-21 01:09:00,
2013-01-20 19:11:00,19.2,13.2,30.26,NW,315,0.0,5.0,77,0.00,,---,0.00,VWS V14.01,2013-01-21 01:11:00,
2013-01-20 19:13:00,19.2,13.5,30.26,NNW,328,2.0,5.0,78,0.00,,---,0.00,VWS V14.01,2013-01-21 01:13:00,
2013-01-20 19:15:00,19.2,13.5,30.25,NNW,342,2.0,5.0,78,0.00,,---,0.00,VWS V14.01,2013-01-21 01:15:00,
2013-01-20 19:17:00,19.1,13.4,30.25,NW,315,1.0,5.0,78,0.00,,---,0.00,VWS V14.01,2013-01-21 01:17:00,
2013-01-20 19:18:00,19.1,13.4,30.25,NNW,337,4.0,7.0,78,0.00,,---,0.00,VWS V14.01,2013-01-21 01:18:00,
2013-01-20 19:19:00,19.1,13.4,30.25,NW,324,2.0,7.0,78,0.00,,---,0.00,VWS V14.01,2013-01-21 01:19:00,
2013-01-20 19:20:00,19.0,13.6,30.25,NNW,338,5.0,7.0,79,0.00,,---,0.00,VWS V14.01,2013-01-21 01:20:00,
2013-01-20 19:22:00,19.0,13.6,30.25,NNW,335,2.0,7.0,79,0.00,,---,0.00,VWS V14.01,2013-01-21 01:22:00,
2013-01-20 19:23:00,19.0,13.6,30.25,WNW,288,5.0,7.0,79,0.00,,---,0.00,VWS V14.01,2013-01-21 01:23:00,
2013-01-20 19:24:00,19.0,13.6,30.25,NNW,338,5.0,7.0,79,0.00,,---,0.00,VWS V14.01,2013-01-21 01:24:00,
2013-01-20 19:25:00,19.0,13.6,30.25,WNW,300,6.0,7.0,79,0.00,,---,0.00,VWS V14.01,2013-01-21 01:25:00,
2013-01-20 19:27:00,18.9,13.8,30.25,NW,308,3.0,9.0,80,0.00,,---,0.00,VWS V14.01,2013-01-21 01:27:00,
2013-01-20 19:28:00,19.0,13.6,30.25,NW,307,4.0,9.0,79,0.00,,---,0.00,VWS V14.01,2013-01-21 01:28:00,
2013-01-20 19:29:00,18.9,13.5,30.25,WNW,300,5.0,9.0,79,0.00,,---,0.00,VWS V14.01,2013-01-21 01:29:00,
2013-01-20 19:30:00,18.9,13.5,30.25,NW,304,6.0,9.0,79,0.00,,---,0.00,VWS V14.01,2013-01-21 01:30:00,
2013-01-20 19:32:00,18.8,13.4,30.25,NW,310,6.0,9.0,79,0.00,,---,0.00,VWS V14.01,2013-01-21 01:32:00,
2013-01-20 19:33:00,18.8,13.4,30.25,NW,317,3.0,9.0,79,0.00,,---,0.00,VWS V14.01,2013-01-21 01:33:00,
2013-01-20 19:34:00,18.8,13.1,30.25,NW,317,4.0,9.0,78,0.00,,---,0.00,VWS V14.01,2013-01-21 01:34:00,
2013-01-20 19:35:00,18.7,13.0,30.25,WNW,302,2.0,9.0,78,0.00,,---,0.00,VWS V14.01,2013-01-21 01:35:00,
2013-01-20 19:37:00,18.7,13.0,30.25,NW,315,1.0,13.0,78,0.00,,---,0.00,VWS V14.01,2013-01-21 01:37:00,
2013-01-20 19:39:00,18.7,13.0,30.25,NW,325,4.0,13.0,78,0.00,,---,0.00,VWS V14.01,2013-01-21 01:39:00,
2013-01-20 19:40:00,18.7,13.0,30.25,NW,316,4.0,5.0,78,0.00,,---,0.00,VWS V14.01,2013-01-21 01:40:00,
2013-01-20 19:43:00,18.6,12.9,30.25,NW,321,5.0,5.0,78,0.00,,---,0.00,VWS V14.01,2013-01-21 01:43:00,
2013-01-20 19:44:00,18.6,12.9,30.25,NW,314,4.0,5.0,78,0.00,,---,0.00,VWS V14.01,2013-01-21 01:44:00,
2013-01-20 19:45:00,18.6,12.9,30.25,WNW,302,0.0,6.0,78,0.00,,---,0.00,VWS V14.01,2013-01-21 01:45:00,
2013-01-20 19:48:00,18.6,13.2,30.25,North,5,3.0,6.0,79,0.00,,---,0.00,VWS V14.01,2013-01-21 01:48:00,
2013-01-20 19:49:00,18.6,13.2,30.25,North,360,3.0,6.0,79,0.00,,---,0.00,VWS V14.01,2013-01-21 01:49:00,
2013-01-20 19:50:00,18.6,13.2,30.25,WNW,298,2.0,6.0,79,0.00,,---,0.00,VWS V14.01,2013-01-21 01:50:00,
2013-01-20 19:53:00,18.6,12.9,30.24,WNW,284,2.0,6.0,78,0.00,,---,0.00,VWS V14.01,2013-01-21 01:53:00,
2013-01-20 19:54:00,18.6,12.9,30.24,NNW,342,5.0,6.0,78,0.00,,---,0.00,VWS V14.01,2013-01-21 01:54:00,
2013-01-20 19:55:00,18.6,12.9,30.24,NW,318,5.0,6.0,78,0.00,,---,0.00,VWS V14.01,2013-01-21 01:55:00,
2013-01-20 19:58:00,18.5,12.8,30.24,NNW,330,5.0,8.0,78,0.00,,---,0.00,VWS V14.01,2013-01-21 01:58:00,
2013-01-20 19:59:00,18.5,12.8,30.24,WNW,303,4.0,8.0,78,0.00,,---,0.00,VWS V14.01,2013-01-21 01:59:00,
2013-01-20 20:00:00,18.4,12.7,30.24,NW,323,5.0,9.0,78,0.00,,---,0.00,VWS V14.01,2013-01-21 02:00:00,
2013-01-20 20:03:00,18.4,12.7,30.25,WNW,302,4.0,7.0,78,0.00,,---,0.00,VWS V14.01,2013-01-21 02:03:00,
2013-01-20 20:04:00,18.4,12.7,30.25,WNW,301,1.0,7.0,78,0.00,,---,0.00,VWS V14.01,2013-01-21 02:04:00,
2013-01-20 20:05:00,18.4,13.0,30.25,WNW,293,6.0,7.0,79,0.00,,---,0.00,VWS V14.01,2013-01-21 02:05:00,
2013-01-20 20:06:00,18.4,13.0,30.25,WNW,295,1.0,7.0,79,0.00,,---,0.00,VWS V14.01,2013-01-21 02:06:00,
2013-01-20 20:09:00,18.4,13.0,30.25,NNW,330,2.0,7.0,79,0.00,,---,0.00,VWS V14.01,2013-01-21 02:09:00,
2013-01-20 20:10:00,18.4,13.0,30.25,NW,306,1.0,7.0,79,0.00,,---,0.00,VWS V14.01,2013-01-21 02:10:00,
2013-01-20 20:11:00,18.4,13.0,30.25,NW,306,1.0,7.0,79,0.00,,---,0.00,VWS V14.01,2013-01-21 02:11:00,
2013-01-20 20:14:00,18.5,13.1,30.25,NW,323,2.0,7.0,79,0.00,,---,0.00,VWS V14.01,2013-01-21 02:14:00,
2013-01-20 20:15:00,18.5,13.1,30.25,NW,325,5.0,7.0,79,0.00,,---,0.00,VWS V14.01,2013-01-21 02:15:00,
2013-01-20 20:16:00,18.4,13.0,30.25,WNW,302,4.0,7.0,79,0.00,,---,0.00,VWS V14.01,2013-01-21 02:16:00,
2013-01-20 20:19:00,18.4,13.0,30.25,NNW,328,6.0,7.0,79,0.00,,---,0.00,VWS V14.01,2013-01-21 02:19:00,
2013-01-20 20:20:00,18.4,13.0,30.25,NNW,342,6.0,7.0,79,0.00,,---,0.00,VWS V14.01,2013-01-21 02:20:00,
2013-01-20 20:21:00,18.4,13.0,30.25,WNW,296,6.0,9.0,79,0.00,,---,0.00,VWS V14.01,2013-01-21 02:21:00,
2013-01-20 20:24:00,18.4,13.0,30.24,WNW,290,3.0,9.0,79,0.00,,---,0.00,VWS V14.01,2013-01-21 02:24:00,
2013-01-20 20:25:00,18.4,13.0,30.24,WNW,288,6.0,9.0,79,0.00,,---,0.00,VWS V14.01,2013-01-21 02:25:00,
2013-01-20 20:26:00,18.4,13.0,30.24,WNW,293,2.0,9.0,79,0.00,,---,0.00,VWS V14.01,2013-01-21 02:26:00,
2013-01-20 20:29:00,18.4,12.7,30.24,NNW,329,1.0,9.0,78,0.00,,---,0.00,VWS V14.01,2013-01-21 02:29:00,
2013-01-20 20:30:00,18.3,12.6,30.24,NW,319,4.0,4.0,78,0.00,,---,0.00,VWS V14.01,2013-01-21 02:30:00,
2013-01-20 20:31:00,18.3,12.6,30.24,NW,320,5.0,5.0,78,0.00,,---,0.00,VWS V14.01,2013-01-21 02:31:00,
2013-01-20 20:34:00,18.2,12.5,30.25,NNW,348,3.0,10.0,78,0.00,,---,0.00,VWS V14.01,2013-01-21 02:34:00,
2013-01-20 20:35:00,18.3,12.6,30.25,WNW,294,2.0,10.0,78,0.00,,---,0.00,VWS V14.01,2013-01-21 02:35:00,
2013-01-20 20:37:00,18.3,12.6,30.24,NW,321,3.0,10.0,78,0.00,,---,0.00,VWS V14.01,2013-01-21 02:37:00,
2013-01-20 20:39:00,18.2,12.5,30.25,WNW,286,8.0,11.0,78,0.00,,---,0.00,VWS V14.01,2013-01-21 02:39:00,
2013-01-20 20:40:00,18.2,12.5,30.25,West,277,10.0,11.0,78,0.00,,---,0.00,VWS V14.01,2013-01-21 02:40:00,
2013-01-20 20:42:00,18.2,12.5,30.25,NNW,332,7.0,11.0,78,0.00,,---,0.00,VWS V14.01,2013-01-21 02:42:00,
2013-01-20 20:44:00,18.2,12.5,30.25,NNW,328,3.0,11.0,78,0.00,,---,0.00,VWS V14.01,2013-01-21 02:44:00,
2013-01-20 20:45:00,18.2,12.5,30.25,NW,326,2.0,11.0,78,0.00,,---,0.00,VWS V14.01,2013-01-21 02:45:00,
2013-01-20 20:47:00,18.2,12.8,30.25,NW,307,2.0,11.0,79,0.00,,---,0.00,VWS V14.01,2013-01-21 02:47:00,
2013-01-20 20:49:00,18.2,12.5,30.25,NW,325,1.0,11.0,78,0.00,,---,0.00,VWS V14.01,2013-01-21 02:49:00,
2013-01-20 20:50:00,18.2,12.5,30.25,NW,326,1.0,11.0,78,0.00,,---,0.00,VWS V14.01,2013-01-21 02:50:00,
2013-01-20 20:51:00,18.2,12.5,30.25,WNW,294,0.0,11.0,78,0.00,,---,0.00,VWS V14.01,2013-01-21 02:51:00,
2013-01-20 20:52:00,18.2,12.8,30.25,NNW,344,2.0,11.0,79,0.00,,---,0.00,VWS V14.01,2013-01-21 02:52:00,
2013-01-20 20:55:00,18.2,12.5,30.25,NW,304,7.0,11.0,78,0.00,,---,0.00,VWS V14.01,2013-01-21 02:55:00,
2013-01-20 20:56:00,18.2,12.5,30.25,WNW,293,4.0,11.0,78,0.00,,---,0.00,VWS V14.01,2013-01-21 02:56:00,
2013-01-20 20:57:00,18.2,12.5,30.25,NNW,327,4.0,11.0,78,0.00,,---,0.00,VWS V14.01,2013-01-21 02:57:00,
2013-01-20 21:00:00,18.2,12.8,30.25,NW,321,1.0,11.0,79,0.00,,---,0.00,VWS V14.01,2013-01-21 03:00:00,
2013-01-20 21:01:00,18.2,12.8,30.25,WNW,302,4.0,4.0,79,0.00,,---,0.00,VWS V14.01,2013-01-21 03:01:00,
2013-01-20 21:02:00,18.2,12.8,30.25,WNW,301,7.0,7.0,79,0.00,,---,0.00,VWS V14.01,2013-01-21 03:02:00,
2013-01-20 21:05:00,18.1,12.7,30.24,NW,315,3.0,7.0,79,0.00,,---,0.00,VWS V14.01,2013-01-21 03:05:00,
2013-01-20 21:06:00,18.1,12.7,30.25,NW,305,3.0,7.0,79,0.00,,---,0.00,VWS V14.01,2013-01-21 03:06:00,
2013-01-20 21:08:00,18.1,12.7,30.25,NW,313,3.0,10.0,79,0.00,,---,0.00,VWS V14.01,2013-01-21 03:08:00,
2013-01-20 21:10:00,18.1,12.7,30.25,WNW,303,1.0,10.0,79,0.00,,---,0.00,VWS V14.01,2013-01-21 03:10:00,
2013-01-20 21:11:00,18.2,12.8,30.25,NNW,337,3.0,10.0,79,0.00,,---,0.00,VWS V14.01,2013-01-21 03:11:00,
2013-01-20 21:13:00,18.2,13.1,30.25,NW,308,4.0,10.0,80,0.00,,---,0.00,VWS V14.01,2013-01-21 03:13:00,
2013-01-20 21:15:00,18.2,13.1,30.24,NW,322,1.0,10.0,80,0.00,,---,0.00,VWS V14.01,2013-01-21 03:15:00,
2013-01-20 21:16:00,18.2,13.1,30.24,NW,310,3.0,10.0,80,0.00,,---,0.00,VWS V14.01,2013-01-21 03:16:00,
2013-01-20 21:17:00,18.2,13.1,30.24,NW,311,1.0,10.0,80,0.00,,---,0.00,VWS V14.01,2013-01-21 03:17:00,
2013-01-20 21:18:00,18.2,13.1,30.24,NW,311,2.0,10.0,80,0.00,,---,0.00,VWS V14.01,2013-01-21 03:18:00,
2013-01-20 21:21:00,18.1,13.0,30.24,NW,326,4.0,10.0,80,0.00,,---,0.00,VWS V14.01,2013-01-21 03:21:00,
2013-01-20 21:22:00,18.2,13.1,30.24,NW,320,1.0,10.0,80,0.00,,---,0.00,VWS V14.01,2013-01-21 03:22:00,
2013-01-20 21:23:00,18.2,13.1,30.24,NW,325,1.0,10.0,80,0.00,,---,0.00,VWS V14.01,2013-01-21 03:23:00,
2013-01-20 21:26:00,18.1,13.0,30.24,NW,323,1.0,10.0,80,0.00,,---,0.00,VWS V14.01,2013-01-21 03:26:00,
2013-01-20 21:28:00,18.1,13.0,30.24,NNW,327,0.0,10.0,80,0.00,,---,0.00,VWS V14.01,2013-01-21 03:28:00,
2013-01-20 21:31:00,18.2,13.1,30.24,NW,319,3.0,3.0,80,0.00,,---,0.00,VWS V14.01,2013-01-21 03:31:00,
2013-01-20 21:33:00,18.2,13.1,30.24,NNW,329,3.0,5.0,80,0.00,,---,0.00,VWS V14.01,2013-01-21 03:33:00,
2013-01-20 21:36:00,18.2,13.1,30.24,NNW,343,3.0,5.0,80,0.00,,---,0.00,VWS V14.01,2013-01-21 03:36:00,
2013-01-20 21:38:00,18.2,13.1,30.25,NW,309,4.0,6.0,80,0.00,,---,0.00,VWS V14.01,2013-01-21 03:38:00,
2013-01-20 21:41:00,18.2,13.4,30.25,NW,315,1.0,6.0,81,0.00,,---,0.00,VWS V14.01,2013-01-21 03:41:00,
2013-01-20 21:43:00,18.2,13.4,30.25,NNW,329,1.0,6.0,81,0.00,,---,0.00,VWS V14.01,2013-01-21 03:43:00,
2013-01-20 21:46:00,18.2,13.4,30.25,WNW,285,2.0,6.0,81,0.00,,---,0.00,VWS V14.01,2013-01-21 03:46:00,
2013-01-20 21:47:00,18.3,13.5,30.25,WNW,286,1.0,6.0,81,0.00,,---,0.00,VWS V14.01,2013-01-21 03:47:00,
2013-01-20 21:48:00,18.3,13.5,30.25,NW,304,1.0,6.0,81,0.00,,---,0.00,VWS V14.01,2013-01-21 03:48:00,
2013-01-20 21:51:00,18.4,13.6,30.25,NW,311,2.0,6.0,81,0.00,,---,0.00,VWS V14.01,2013-01-21 03:51:00,
2013-01-20 21:52:00,18.4,13.6,30.25,NW,311,2.0,6.0,81,0.00,,---,0.00,VWS V14.01,2013-01-21 03:52:00,
2013-01-20 21:53:00,18.4,13.6,30.25,NNW,342,1.0,6.0,81,0.00,,---,0.00,VWS V14.01,2013-01-21 03:53:00,
2013-01-20 21:56:00,18.4,13.6,30.25,West,280,2.0,6.0,81,0.00,,---,0.00,VWS V14.01,2013-01-21 03:56:00,
2013-01-20 21:57:00,18.3,13.5,30.25,WNW,282,2.0,6.0,81,0.00,,---,0.00,VWS V14.01,2013-01-21 03:57:00,
2013-01-20 21:58:00,18.3,13.5,30.25,NW,304,3.0,6.0,81,0.00,,---,0.00,VWS V14.01,2013-01-21 03:58:00,
2013-01-20 22:02:00,18.2,13.4,30.25,WNW,300,3.0,7.0,81,0.00,,---,0.00,VWS V14.01,2013-01-21 04:02:00,
2013-01-20 22:03:00,18.1,13.3,30.25,NW,315,2.0,8.0,81,0.00,,---,0.00,VWS V14.01,2013-01-21 04:03:00,
2013-01-20 22:04:00,18.1,13.3,30.25,NW,315,2.0,8.0,81,0.00,,---,0.00,VWS V14.01,2013-01-21 04:04:00,
2013-01-20 22:07:00,18.1,13.3,30.25,NW,318,6.0,8.0,81,0.00,,---,0.00,VWS V14.01,2013-01-21 04:07:00,
2013-01-20 22:09:00,18.0,13.2,30.25,NNW,331,4.0,9.0,81,0.00,,---,0.00,VWS V14.01,2013-01-21 04:09:00,
2013-01-20 22:10:00,17.9,12.8,30.25,NW,312,4.0,9.0,80,0.00,,---,0.00,VWS V14.01,2013-01-21 04:10:00,
2013-01-20 22:12:00,17.8,12.7,30.25,NW,317,3.0,9.0,80,0.00,,---,0.00,VWS V14.01,2013-01-21 04:12:00,
2013-01-20 22:14:00,17.7,12.6,30.25,West,275,4.0,9.0,80,0.00,,---,0.00,VWS V14.01,2013-01-21 04:14:00,
2013-01-20 22:15:00,17.7,12.6,30.25,WNW,290,5.0,9.0,80,0.00,,---,0.00,VWS V14.01,2013-01-21 04:15:00,
2013-01-20 22:17:00,17.7,12.6,30.25,WNW,302,3.0,9.0,80,0.00,,---,0.00,VWS V14.01,2013-01-21 04:17:00,
2013-01-20 22:19:00,17.7,12.3,30.25,WNW,298,7.0,9.0,79,0.00,,---,0.00,VWS V14.01,2013-01-21 04:19:00,
2013-01-20 22:20:00,17.6,12.2,30.25,NNW,340,6.0,11.0,79,0.00,,---,0.00,VWS V14.01,2013-01-21 04:20:00,
2013-01-20 22:22:00,17.5,12.1,30.25,WNW,292,4.0,11.0,79,0.00,,---,0.00,VWS V14.01,2013-01-21 04:22:00,
2013-01-20 22:23:00,17.5,12.1,30.25,WNW,290,5.0,11.0,79,0.00,,---,0.00,VWS V14.01,2013-01-21 04:23:00,
2013-01-20 22:24:00,17.5,12.1,30.25,NW,315,6.0,11.0,79,0.00,,---,0.00,VWS V14.01,2013-01-21 04:24:00,
2013-01-20 22:25:00,17.5,12.1,30.25,WNW,296,5.0,11.0,79,0.00,,---,0.00,VWS V14.01,2013-01-21 04:25:00,
2013-01-20 22:28:00,17.5,11.8,30.25,WNW,298,9.0,13.0,78,0.00,,---,0.00,VWS V14.01,2013-01-21 04:28:00,
2013-01-20 22:29:00,17.4,11.7,30.25,WNW,286,8.0,13.0,78,0.00,,---,0.00,VWS V14.01,2013-01-21 04:29:00,
2013-01-20 22:30:00,17.4,11.7,30.25,NNW,330,5.0,13.0,78,0.00,,---,0.00,VWS V14.01,2013-01-21 04:30:00,
2013-01-20 22:33:00,17.3,11.3,30.25,NW,307,4.0,13.0,77,0.00,,---,0.00,VWS V14.01,2013-01-21 04:33:00,
2013-01-20 22:34:00,17.3,11.3,30.25,NW,320,10.0,13.0,77,0.00,,---,0.00,VWS V14.01,2013-01-21 04:34:00,
2013-01-20 22:35:00,17.3,11.3,30.25,NW,304,4.0,13.0,77,0.00,,---,0.00,VWS V14.01,2013-01-21 04:35:00,
2013-01-20 22:38:00,17.3,11.6,30.25,NNW,335,6.0,13.0,78,0.00,,---,0.00,VWS V14.01,2013-01-21 04:38:00,
2013-01-20 22:39:00,17.3,11.3,30.25,WNW,296,2.0,13.0,77,0.00,,---,0.00,VWS V14.01,2013-01-21 04:39:00,
2013-01-20 22:40:00,17.3,11.6,30.25,WNW,290,2.0,13.0,78,0.00,,---,0.00,VWS V14.01,2013-01-21 04:40:00,
2013-01-20 22:43:00,17.4,11.7,30.25,WNW,285,7.0,13.0,78,0.00,,---,0.00,VWS V14.01,2013-01-21 04:43:00,
2013-01-20 22:44:00,17.3,11.6,30.25,WNW,292,3.0,13.0,78,0.00,,---,0.00,VWS V14.01,2013-01-21 04:44:00,
2013-01-20 22:45:00,17.4,11.7,30.24,WNW,296,3.0,13.0,78,0.00,,---,0.00,VWS V14.01,2013-01-21 04:45:00,
2013-01-20 22:48:00,17.4,11.7,30.24,WNW,289,5.0,13.0,78,0.00,,---,0.00,VWS V14.01,2013-01-21 04:48:00,
2013-01-20 22:49:00,17.4,11.7,30.24,NW,309,5.0,13.0,78,0.00,,---,0.00,VWS V14.01,2013-01-21 04:49:00,
2013-01-20 22:50:00,17.4,11.7,30.24,WNW,298,1.0,13.0,78,0.00,,---,0.00,VWS V14.01,2013-01-21 04:50:00,
2013-01-20 22:51:00,17.4,11.7,30.24,NW,320,2.0,13.0,78,0.00,,---,0.00,VWS V14.01,2013-01-21 04:51:00,
2013-01-20 22:53:00,17.4,11.7,30.24,WNW,292,4.0,13.0,78,0.00,,---,0.00,VWS V14.01,2013-01-21 04:53:00,
2013-01-20 22:54:00,17.4,11.7,30.24,WNW,286,5.0,13.0,78,0.00,,---,0.00,VWS V14.01,2013-01-21 04:54:00,
2013-01-20 22:55:00,17.4,11.7,30.24,WNW,295,5.0,13.0,78,0.00,,---,0.00,VWS V14.01,2013-01-21 04:55:00,
2013-01-20 22:56:00,17.4,11.7,30.24,WNW,287,5.0,13.0,78,0.00,,---,0.00,VWS V14.01,2013-01-21 04:56:00,
2013-01-20 22:58:00,17.4,11.7,30.24,WNW,288,5.0,13.0,78,0.00,,---,0.00,VWS V14.01,2013-01-21 04:58:00,
2013-01-20 22:59:00,17.4,11.7,30.24,WNW,295,5.0,13.0,78,0.00,,---,0.00,VWS V14.01,2013-01-21 04:59:00,
2013-01-20 23:00:00,17.4,11.7,30.24,WNW,298,6.0,13.0,78,0.00,,---,0.00,VWS V14.01,2013-01-21 05:00:00,
2013-01-20 23:03:00,17.4,11.7,30.24,WNW,286,5.0,9.0,78,0.00,,---,0.00,VWS V14.01,2013-01-21 05:03:00,
2013-01-20 23:05:00,17.4,11.7,30.24,NW,321,5.0,10.0,78,0.00,,---,0.00,VWS V14.01,2013-01-21 05:05:00,
2013-01-20 23:06:00,17.4,11.7,30.24,NNW,331,9.0,11.0,78,0.00,,---,0.00,VWS V14.01,2013-01-21 05:06:00,
2013-01-20 23:08:00,17.5,11.8,30.24,WNW,298,3.0,11.0,78,0.00,,---,0.00,VWS V14.01,2013-01-21 05:08:00,
2013-01-20 23:10:00,17.5,11.8,30.24,WNW,301,2.0,13.0,78,0.00,,---,0.00,VWS V14.01,2013-01-21 05:10:00,
2013-01-20 23:11:00,17.5,11.8,30.24,WNW,301,1.0,13.0,78,0.00,,---,0.00,VWS V14.01,2013-01-21 05:11:00,
2013-01-20 23:13:00,17.5,12.1,30.24,NNW,343,5.0,13.0,79,0.00,,---,0.00,VWS V14.01,2013-01-21 05:13:00,
2013-01-20 23:15:00,17.5,12.1,30.24,NW,304,10.0,13.0,79,0.00,,---,0.00,VWS V14.01,2013-01-21 05:15:00,
2013-01-20 23:16:00,17.5,12.1,30.24,NW,319,4.0,13.0,79,0.00,,---,0.00,VWS V14.01,2013-01-21 05:16:00,
2013-01-20 23:18:00,17.6,12.2,30.24,NW,315,5.0,13.0,79,0.00,,---,0.00,VWS V14.01,2013-01-21 05:18:00,
2013-01-20 23:20:00,17.6,12.2,30.24,WNW,296,4.0,13.0,79,0.00,,---,0.00,VWS V14.01,2013-01-21 05:20:00,
2013-01-20 23:21:00,17.6,12.2,30.24,WNW,293,9.0,13.0,79,0.00,,---,0.00,VWS V14.01,2013-01-21 05:21:00,
2013-01-20 23:24:00,17.6,12.2,30.24,WNW,298,5.0,13.0,79,0.00,,---,0.00,VWS V14.01,2013-01-21 05:24:00,
2013-01-20 23:25:00,17.6,12.2,30.24,NW,308,7.0,13.0,79,0.00,,---,0.00,VWS V14.01,2013-01-21 05:25:00,
2013-01-20 23:26:00,17.6,12.2,30.24,WNW,288,7.0,13.0,79,0.00,,---,0.00,VWS V14.01,2013-01-21 05:26:00,
2013-01-20 23:29:00,17.4,11.4,30.24,WNW,290,7.0,15.0,77,0.00,,---,0.00,VWS V14.01,2013-01-21 05:29:00,
2013-01-20 23:31:00,17.3,11.3,30.24,WNW,292,5.0,13.0,77,0.00,,---,0.00,VWS V14.01,2013-01-21 05:31:00,
2013-01-20 23:32:00,17.3,11.3,30.24,West,281,11.0,13.0,77,0.00,,---,0.00,VWS V14.01,2013-01-21 05:32:00,
2013-01-20 23:34:00,17.2,10.9,30.24,North,355,5.0,14.0,76,0.00,,---,0.00,VWS V14.01,2013-01-21 05:34:00,
2013-01-20 23:37:00,17.2,10.9,30.24,NW,308,7.0,14.0,76,0.00,,---,0.00,VWS V14.01,2013-01-21 05:37:00,
2013-01-20 23:39:00,17.2,10.9,30.24,NNW,327,6.0,14.0,76,0.00,,---,0.00,VWS V14.01,2013-01-21 05:39:00,
2013-01-20 23:42:00,17.2,10.9,30.24,NW,311,5.0,14.0,76,0.00,,---,0.00,VWS V14.01,2013-01-21 05:42:00,
2013-01-20 23:44:00,17.3,11.1,30.24,WNW,287,6.0,14.0,76,0.00,,---,0.00,VWS V14.01,2013-01-21 05:44:00,
2013-01-20 23:47:00,17.3,11.1,30.24,NNW,342,4.0,14.0,76,0.00,,---,0.00,VWS V14.01,2013-01-21 05:47:00,
2013-01-20 23:50:00,17.3,11.3,30.24,WNW,290,4.0,14.0,77,0.00,,---,0.00,VWS V14.01,2013-01-21 05:50:00,
2013-01-20 23:52:00,17.4,11.4,30.24,WNW,302,11.0,14.0,77,0.00,,---,0.00,VWS V14.01,2013-01-21 05:52:00,
2013-01-20 23:55:00,17.5,11.5,30.23,NW,304,9.0,14.0,77,0.00,,---,0.00,VWS V14.01,2013-01-21 05:55:00,
2013-01-20 23:57:00,17.5,11.8,30.23,WNW,287,7.0,14.0,78,0.00,,---,0.00,VWS V14.01,2013-01-21 05:57:00,
2013-01-20 23:58:00,17.5,11.8,30.24,WNW,298,6.0,14.0,78,0.00,,---,0.00,VWS V14.01,2013-01-21 05:58:00,